Observation data for Happy on 01/19/2019      Previous  Date  Next       Current Mesonet Observations  Soil Data  Daily Summary Page  Observations in Plain Language
KHA2 190600Z 34025G31KT M00/M02 A3005 RMK A01 T10031023  RH  086%=      5-min Rain = 0
KHA2 190601Z 34026KT M00/M02 A3005 RMK A01 T10031024  RH  086%=      5-min Rain = 0
KHA2 190602Z 34025G31KT M00/M02 A3005 RMK A01 T10031024  RH  086%=      5-min Rain = 0
KHA2 190603Z 34026G32KT M00/M02 A3005 RMK A01 T10031024  RH  086%=      5-min Rain = 0
KHA2 190604Z 34026KT M00/M02 A3005 RMK A01 T10031024  RH  086%=      5-min Rain = 0
KHA2 190605Z 34025KT M00/M02 A3006 RMK A01 T10031024  RH  086%=      5-min Rain = 0
KHA2 190606Z 34023KT M00/M02 A3006 RMK A01 T10031024  RH  086%=      5-min Rain = 0
KHA2 190607Z 34021KT M00/M02 A3006 RMK A01 T10031023  RH  086%=      5-min Rain = 0
KHA2 190608Z 34022G27KT M00/M02 A3006 RMK A01 T10031023  RH  087%=      5-min Rain = 0
KHA2 190609Z 34024KT M00/M02 A3006 RMK A01 T10031023  RH  086%=      5-min Rain = 0
KHA2 190610Z 34028KT M00/M02 A3006 RMK A01 T10031023  RH  086%=      5-min Rain = 0
KHA2 190611Z 34024KT M00/M02 A3006 RMK A01 T10021023  RH  086%=      5-min Rain = 0
KHA2 190612Z 34023KT M00/M02 A3006 RMK A01 T10021023  RH  086%=      5-min Rain = 0
KHA2 190613Z 34024G29KT M00/M02 A3006 RMK A01 T10021023  RH  086%=      5-min Rain = 0
KHA2 190614Z 34022KT M00/M02 A3006 RMK A01 T10021023  RH  086%=      5-min Rain = 0
KHA2 190615Z 34025KT M00/M02 A3006 RMK A01 T10031022  RH  087%=      5-min Rain = 0
KHA2 190616Z 34028KT M00/M02 A3006 RMK A01 T10031023  RH  086%=      5-min Rain = 0
KHA2 190617Z 34029G36KT M00/M02 A3006 RMK A01 T10021023  RH  086%=      5-min Rain = 0
KHA2 190618Z 34028G34KT M00/M03 A3006 RMK A01 T10021025  RH  085%=      5-min Rain = 0
KHA2 190619Z 35033KT M00/M03 A3006 RMK A01 T10021025  RH  084%=      5-min Rain = 0
KHA2 190620Z 35030G35KT M00/M03 A3006 RMK A01 T10011026  RH  083%=      5-min Rain = 0
KHA2 190621Z 34028G36KT M00/M03 A3006 RMK A01 T10011026  RH  083%=      5-min Rain = 0
KHA2 190622Z 34032KT M00/M03 A3006 RMK A01 T10011026  RH  083%=      5-min Rain = 0
KHA2 190623Z 34030KT M00/M03 A3006 RMK A01 T10011027  RH  083%=      5-min Rain = 0
KHA2 190624Z 34024KT M00/M03 A3006 RMK A01 T10011026  RH  083%=      5-min Rain = 0
KHA2 190625Z 34027G33KT M00/M03 A3006 RMK A01 T10021025  RH  084%=      5-min Rain = 0
KHA2 190626Z 34025G30KT M00/M03 A3006 RMK A01 T10021025  RH  085%=      5-min Rain = 0
KHA2 190627Z 34028G36KT M00/M03 A3006 RMK A01 T10021025  RH  085%=      5-min Rain = 0
KHA2 190628Z 34028G33KT M00/M03 A3006 RMK A01 T10031025  RH  085%=      5-min Rain = 0
KHA2 190629Z 34024KT M00/M03 A3006 RMK A01 T10031025  RH  085%=      5-min Rain = 0
KHA2 190630Z 34025G30KT M00/M03 A3007 RMK A01 T10031025  RH  085%=      5-min Rain = 0
KHA2 190631Z 34027G32KT M00/M03 A3006 RMK A01 T10041026  RH  085%=      5-min Rain = 0
KHA2 190632Z 34024KT M00/M03 A3007 RMK A01 T10041026  RH  085%=      5-min Rain = 0
KHA2 190633Z 34028KT M01/M03 A3007 RMK A01 T10051027  RH  085%=      5-min Rain = 0
KHA2 190634Z 34029KT M01/M03 A3007 RMK A01 T10051029  RH  084%=      5-min Rain = 0
KHA2 190635Z 34025KT M00/M03 A3007 RMK A01 T10041029  RH  083%=      5-min Rain = 0
KHA2 190636Z 34028KT M01/M03 A3007 RMK A01 T10051030  RH  083%=      5-min Rain = 0
KHA2 190637Z 35030G35KT M01/M03 A3007 RMK A01 T10051031  RH  083%=      5-min Rain = 0
KHA2 190638Z 34028KT M01/M03 A3007 RMK A01 T10051031  RH  083%=      5-min Rain = 0
KHA2 190639Z 34026G32KT M01/M03 A3007 RMK A01 T10061032  RH  082%=      5-min Rain = 0
KHA2 190640Z 34024G30KT M01/M03 A3007 RMK A01 T10061032  RH  083%=      5-min Rain = 0
KHA2 190641Z 34025G31KT M01/M03 A3008 RMK A01 T10071032  RH  083%=      5-min Rain = 0
KHA2 190642Z 34025G30KT M01/M03 A3007 RMK A01 T10071032  RH  083%=      5-min Rain = 0
KHA2 190643Z 34025KT M01/M03 A3008 RMK A01 T10071032  RH  084%=      5-min Rain = 0
KHA2 190644Z 34025G30KT M01/M03 A3007 RMK A01 T10081032  RH  083%=      5-min Rain = 0
KHA2 190645Z 34024KT M01/M03 A3008 RMK A01 T10081033  RH  083%=      5-min Rain = 0
KHA2 190646Z 34024G30KT M01/M03 A3008 RMK A01 T10081033  RH  084%=      5-min Rain = 0
KHA2 190647Z 34026KT M01/M03 A3008 RMK A01 T10091032  RH  084%=      5-min Rain = 0
KHA2 190648Z 34026KT M01/M03 A3008 RMK A01 T10091032  RH  084%=      5-min Rain = 0
KHA2 190649Z 34025KT M01/M03 A3008 RMK A01 T10081032  RH  084%=      5-min Rain = 0
KHA2 190650Z 34026KT M01/M03 A3008 RMK A01 T10091032  RH  084%=      5-min Rain = 0
KHA2 190651Z 34022KT M01/M03 A3008 RMK A01 T10091032  RH  084%=      5-min Rain = 0
KHA2 190652Z 34024KT M01/M03 A3008 RMK A01 T10091032  RH  085%=      5-min Rain = 0
KHA2 190653Z 34022KT M01/M03 A3008 RMK A01 T10091031  RH  085%=      5-min Rain = 0
KHA2 190654Z 34021KT M01/M03 A3008 RMK A01 T10101031  RH  086%=      5-min Rain = 0
KHA2 190655Z 34020KT M01/M03 A3008 RMK A01 T10101030  RH  086%=      5-min Rain = 0
KHA2 190656Z 33021KT M01/M03 A3008 RMK A01 T10101029  RH  087%=      5-min Rain = 0
KHA2 190657Z 34023G28KT M01/M03 A3008 RMK A01 T10101028  RH  087%=      5-min Rain = 0
KHA2 190658Z 34023KT M01/M03 A3008 RMK A01 T10101029  RH  087%=      5-min Rain = 0
KHA2 190659Z 34025KT M01/M03 A3008 RMK A01 T10101030  RH  087%=      5-min Rain = 0
KHA2 190700Z 34027G32KT M01/M03 A3008 RMK A01 T10101030  RH  086%=      5-min Rain = 0
KHA2 190701Z 34025G32KT M01/M03 A3008 RMK A01 T10101031  RH  086%=      5-min Rain = 0
KHA2 190702Z 34028G34KT M01/M03 A3008 RMK A01 T10101031  RH  085%=      5-min Rain = 0
KHA2 190703Z 34030G36KT M01/M03 A3008 RMK A01 T10101032  RH  085%=      5-min Rain = 0
KHA2 190704Z 34025G30KT M01/M03 A3009 RMK A01 T10101033  RH  084%=      5-min Rain = 0
KHA2 190705Z 34030G35KT M01/M03 A3008 RMK A01 T10101033  RH  084%=      5-min Rain = 0
KHA2 190706Z 34028KT M01/M03 A3008 RMK A01 T10101034  RH  084%=      5-min Rain = 0
KHA2 190707Z 34028G33KT M01/M04 A3009 RMK A01 T10101035  RH  083%=      5-min Rain = 0
KHA2 190708Z 34025KT M01/M04 A3009 RMK A01 T10101035  RH  083%=      5-min Rain = 0
KHA2 190709Z 34028KT M01/M04 A3009 RMK A01 T10111035  RH  084%=      5-min Rain = 0
KHA2 190710Z 34029G34KT M01/M04 A3008 RMK A01 T10111035  RH  084%=      5-min Rain = 0
KHA2 190711Z 34029KT M01/M04 A3009 RMK A01 T10111036  RH  083%=      5-min Rain = 0
KHA2 190712Z 34028KT M01/M04 A3008 RMK A01 T10111036  RH  083%=      5-min Rain = 0
KHA2 190713Z 34026G31KT M01/M04 A3009 RMK A01 T10111036  RH  083%=      5-min Rain = 0
KHA2 190714Z 34024G29KT M01/M04 A3009 RMK A01 T10111036  RH  083%=      5-min Rain = 0
KHA2 190715Z 34025KT M01/M04 A3009 RMK A01 T10121036  RH  084%=      5-min Rain = 0
KHA2 190716Z 34028KT M01/M04 A3009 RMK A01 T10111036  RH  083%=      5-min Rain = 0
KHA2 190717Z 34028KT M01/M04 A3009 RMK A01 T10121037  RH  083%=      5-min Rain = 0
KHA2 190718Z 34028G35KT M01/M04 A3009 RMK A01 T10121038  RH  083%=      5-min Rain = 0
KHA2 190719Z 34024KT M01/M04 A3009 RMK A01 T10121038  RH  082%=      5-min Rain = 0
KHA2 190720Z 34026KT M01/M04 A3009 RMK A01 T10121038  RH  083%=      5-min Rain = 0
KHA2 190721Z 34024G30KT M01/M04 A3009 RMK A01 T10131038  RH  083%=      5-min Rain = 0
KHA2 190722Z 34023G28KT M01/M04 A3009 RMK A01 T10131038  RH  083%=      5-min Rain = 0
KHA2 190723Z 34024KT M01/M04 A3009 RMK A01 T10131038  RH  083%=      5-min Rain = 0
KHA2 190724Z 34025KT M01/M04 A3009 RMK A01 T10131037  RH  083%=      5-min Rain = 0
KHA2 190725Z 34025KT M01/M04 A3009 RMK A01 T10131038  RH  083%=      5-min Rain = 0
KHA2 190726Z 34023KT M01/M04 A301 RMK A01 T10131038  RH  083%=      5-min Rain = 0
KHA2 190727Z 34026KT M01/M04 A301 RMK A01 T10131038  RH  083%=      5-min Rain = 0
KHA2 190728Z 34027KT M01/M04 A301 RMK A01 T10131038  RH  083%=      5-min Rain = 0
KHA2 190729Z 34027G32KT M01/M04 A301 RMK A01 T10121038  RH  083%=      5-min Rain = 0
KHA2 190730Z 34024KT M01/M04 A301 RMK A01 T10121038  RH  083%=      5-min Rain = 0
KHA2 190731Z 34024G29KT M01/M04 A301 RMK A01 T10131038  RH  083%=      5-min Rain = 0
KHA2 190732Z 34025KT M01/M04 A301 RMK A01 T10131038  RH  083%=      5-min Rain = 0
KHA2 190733Z 34026KT M01/M04 A301 RMK A01 T10131038  RH  083%=      5-min Rain = 0
KHA2 190734Z 34025G30KT M01/M04 A301 RMK A01 T10131038  RH  083%=      5-min Rain = 0
KHA2 190735Z 34024KT M01/M04 A301 RMK A01 T10141038  RH  083%=      5-min Rain = 0
KHA2 190736Z 34022KT M01/M04 A301 RMK A01 T10141038  RH  084%=      5-min Rain = 0
KHA2 190737Z 34025KT M02/M04 A301 RMK A01 T10151038  RH  084%=      5-min Rain = 0
KHA2 190738Z 34023G28KT M02/M04 A301 RMK A01 T10151038  RH  084%=      5-min Rain = 0
KHA2 190739Z 34026KT M01/M04 A301 RMK A01 T10141038  RH  084%=      5-min Rain = 0
KHA2 190740Z 34023KT M01/M04 A301 RMK A01 T10141039  RH  084%=      5-min Rain = 0
KHA2 190741Z 34023G28KT M02/M04 A301 RMK A01 T10151039  RH  084%=      5-min Rain = 0
KHA2 190742Z 35025KT M02/M04 A301 RMK A01 T10151040  RH  084%=      5-min Rain = 0
KHA2 190743Z 34024G30KT M02/M04 A301 RMK A01 T10151040  RH  083%=      5-min Rain = 0
KHA2 190744Z 34024KT M02/M04 A301 RMK A01 T10151040  RH  083%=      5-min Rain = 0
KHA2 190745Z 34025G30KT M02/M04 A301 RMK A01 T10151040  RH  083%=      5-min Rain = 0
KHA2 190746Z 34023KT M02/M04 A301 RMK A01 T10151040  RH  083%=      5-min Rain = 0
KHA2 190747Z 35021KT M02/M04 A301 RMK A01 T10151040  RH  083%=      5-min Rain = 0
KHA2 190748Z 34021G30KT M02/M04 A301 RMK A01 T10161040  RH  083%=      5-min Rain = 0
KHA2 190749Z 35027KT M02/M04 A301 RMK A01 T10161040  RH  084%=      5-min Rain = 0
KHA2 190750Z 35024KT M02/M04 A301 RMK A01 T10151040  RH  083%=      5-min Rain = 0
KHA2 190751Z 35024KT M02/M04 A301 RMK A01 T10151040  RH  083%=      5-min Rain = 0
KHA2 190752Z 34023KT M02/M04 A301 RMK A01 T10161040  RH  083%=      5-min Rain = 0
KHA2 190753Z 34024KT M02/M04 A301 RMK A01 T10161040  RH  083%=      5-min Rain = 0
KHA2 190754Z 35022KT M02/M04 A301 RMK A01 T10161040  RH  083%=      5-min Rain = 0
KHA2 190755Z 35023KT M02/M04 A301 RMK A01 T10161040  RH  084%=      5-min Rain = 0
KHA2 190756Z 35020KT M02/M04 A301 RMK A01 T10161040  RH  084%=      5-min Rain = 0
KHA2 190757Z 35022G28KT M02/M04 A301 RMK A01 T10161040  RH  084%=      5-min Rain = 0
KHA2 190758Z 35022KT M02/M04 A301 RMK A01 T10171041  RH  084%=      5-min Rain = 0
KHA2 190759Z 35024KT M02/M04 A301 RMK A01 T10171041  RH  084%=      5-min Rain = 0
KHA2 190800Z 35027KT M02/M04 A301 RMK A01 T10161041  RH  083%=      5-min Rain = 0
KHA2 190801Z 35025G30KT M02/M04 A301 RMK A01 T10151041  RH  083%=      5-min Rain = 0
KHA2 190802Z 35022G27KT M02/M04 A301 RMK A01 T10151041  RH  083%=      5-min Rain = 0
KHA2 190803Z 35023KT M02/M04 A301 RMK A01 T10161041  RH  083%=      5-min Rain = 0
KHA2 190804Z 35023KT M02/M04 A301 RMK A01 T10161041  RH  083%=      5-min Rain = 0
KHA2 190805Z 35020G25KT M02/M04 A301 RMK A01 T10161041  RH  083%=      5-min Rain = 0
KHA2 190806Z 35019KT M02/M04 A301 RMK A01 T10171041  RH  084%=      5-min Rain = 0
KHA2 190807Z 34020KT M02/M04 A301 RMK A01 T10181041  RH  084%=      5-min Rain = 0
KHA2 190808Z 34019KT M02/M04 A301 RMK A01 T10181040  RH  085%=      5-min Rain = 0
KHA2 190809Z 35019KT M02/M04 A301 RMK A01 T10181040  RH  085%=      5-min Rain = 0
KHA2 190810Z 35018KT M02/M04 A301 RMK A01 T10191040  RH  085%=      5-min Rain = 0
KHA2 190811Z 35018KT M02/M04 A3011 RMK A01 T10191040  RH  086%=      5-min Rain = 0
KHA2 190812Z 34018KT M02/M04 A3011 RMK A01 T10201040  RH  086%=      5-min Rain = 0
KHA2 190813Z 34017KT M02/M04 A3011 RMK A01 T10201040  RH  086%=      5-min Rain = 0
KHA2 190814Z 34017KT M02/M04 A3011 RMK A01 T10201040  RH  087%=      5-min Rain = 0
KHA2 190815Z 34017KT M02/M04 A3011 RMK A01 T10211039  RH  087%=      5-min Rain = 0
KHA2 190816Z 34017KT M02/M04 A3011 RMK A01 T10211039  RH  087%=      5-min Rain = 0
KHA2 190817Z 34016KT M02/M04 A3011 RMK A01 T10211039  RH  087%=      5-min Rain = 0
KHA2 190818Z 34019G24KT M02/M04 A3011 RMK A01 T10221040  RH  087%=      5-min Rain = 0
KHA2 190819Z 34020KT M02/M04 A3011 RMK A01 T10221040  RH  087%=      5-min Rain = 0
KHA2 190820Z 34021KT M02/M04 A3011 RMK A01 T10221041  RH  087%=      5-min Rain = 0
KHA2 190821Z 34022KT M02/M04 A3011 RMK A01 T10221042  RH  086%=      5-min Rain = 0
KHA2 190822Z 35024KT M02/M04 A3011 RMK A01 T10221043  RH  085%=      5-min Rain = 0
KHA2 190823Z 34024G30KT M02/M04 A3011 RMK A01 T10221044  RH  085%=      5-min Rain = 0
KHA2 190824Z 35023G29KT M02/M04 A3011 RMK A01 T10221044  RH  084%=      5-min Rain = 0
KHA2 190825Z 35025KT M02/M05 A3011 RMK A01 T10221045  RH  084%=      5-min Rain = 0
KHA2 190826Z 34027KT M02/M05 A3011 RMK A01 T10221046  RH  084%=      5-min Rain = 0
KHA2 190827Z 34024G29KT M02/M05 A3011 RMK A01 T10221046  RH  084%=      5-min Rain = 0
KHA2 190828Z 34028G33KT M02/M05 A3011 RMK A01 T10231047  RH  084%=      5-min Rain = 0
KHA2 190829Z 35025G30KT M02/M05 A3011 RMK A01 T10231047  RH  084%=      5-min Rain = 0
KHA2 190830Z 35025KT M02/M05 A3011 RMK A01 T10231047  RH  084%=      5-min Rain = 0
KHA2 190831Z 35025G30KT M02/M05 A3011 RMK A01 T10231047  RH  083%=      5-min Rain = 0
KHA2 190832Z 34027KT M02/M05 A3011 RMK A01 T10231047  RH  083%=      5-min Rain = 0
KHA2 190833Z 34024KT M02/M05 A3011 RMK A01 T10231048  RH  083%=      5-min Rain = 0
KHA2 190834Z 34023KT M02/M05 A3011 RMK A01 T10241048  RH  083%=      5-min Rain = 0
KHA2 190835Z 34021KT M02/M05 A3011 RMK A01 T10241048  RH  084%=      5-min Rain = 0
KHA2 190836Z 34023G29KT M02/M05 A3012 RMK A01 T10241048  RH  084%=      5-min Rain = 0
KHA2 190837Z 34027KT M02/M05 A3011 RMK A01 T10241049  RH  084%=      5-min Rain = 0
KHA2 190838Z 34025G30KT M02/M05 A3012 RMK A01 T10241049  RH  083%=      5-min Rain = 0
KHA2 190839Z 34022KT M02/M05 A3012 RMK A01 T10241049  RH  083%=      5-min Rain = 0
KHA2 190840Z 34024KT M02/M05 A3012 RMK A01 T10241049  RH  083%=      5-min Rain = 0
KHA2 190841Z 34024KT M02/M05 A3012 RMK A01 T10241049  RH  083%=      5-min Rain = 0
KHA2 190842Z 34026KT M02/M05 A3012 RMK A01 T10241049  RH  083%=      5-min Rain = 0
KHA2 190843Z 34026G31KT M02/M05 A3012 RMK A01 T10241050  RH  083%=      5-min Rain = 0
KHA2 190844Z 34024KT M02/M05 A3012 RMK A01 T10241050  RH  083%=      5-min Rain = 0
KHA2 190845Z 34024KT M03/M05 A3012 RMK A01 T10251050  RH  083%=      5-min Rain = 0
KHA2 190846Z 34023G28KT M03/M05 A3012 RMK A01 T10251050  RH  083%=      5-min Rain = 0
KHA2 190847Z 34023KT M03/M05 A3012 RMK A01 T10251050  RH  083%=      5-min Rain = 0
KHA2 190848Z 34023KT M03/M05 A3012 RMK A01 T10251050  RH  083%=      5-min Rain = 0
KHA2 190849Z 34022G28KT M03/M05 A3012 RMK A01 T10251049  RH  083%=      5-min Rain = 0
KHA2 190850Z 34024KT M03/M05 A3012 RMK A01 T10261050  RH  084%=      5-min Rain = 0
KHA2 190851Z 34025KT M03/M05 A3012 RMK A01 T10261050  RH  084%=      5-min Rain = 0
KHA2 190852Z 34021G26KT M03/M05 A3013 RMK A01 T10261050  RH  084%=      5-min Rain = 0
KHA2 190853Z 34022KT M03/M05 A3013 RMK A01 T10261050  RH  084%=      5-min Rain = 0
KHA2 190854Z 34020KT M03/M05 A3013 RMK A01 T10261050  RH  084%=      5-min Rain = 0
KHA2 190855Z 34023KT M03/M05 A3013 RMK A01 T10271050  RH  084%=      5-min Rain = 0
KHA2 190856Z 34022G27KT M03/M05 A3013 RMK A01 T10271050  RH  084%=      5-min Rain = 0
KHA2 190857Z 34024G29KT M03/M05 A3013 RMK A01 T10271049  RH  084%=      5-min Rain = 0
KHA2 190858Z 34023KT M03/M05 A3013 RMK A01 T10261049  RH  084%=      5-min Rain = 0
KHA2 190859Z 34023KT M03/M05 A3013 RMK A01 T10261050  RH  084%=      5-min Rain = 0
KHA2 190900Z 34021KT M03/M05 A3013 RMK A01 T10261050  RH  084%=      5-min Rain = 0
KHA2 190901Z 34025KT M03/M05 A3013 RMK A01 T10271050  RH  084%=      5-min Rain = 0
KHA2 190902Z 34025KT M03/M05 A3013 RMK A01 T10271050  RH  084%=      5-min Rain = 0
KHA2 190903Z 34022KT M03/M05 A3013 RMK A01 T10271050  RH  084%=      5-min Rain = 0
KHA2 190904Z 34026KT M03/M05 A3013 RMK A01 T10261050  RH  084%=      5-min Rain = 0
KHA2 190905Z 34025KT M03/M05 A3013 RMK A01 T10261050  RH  084%=      5-min Rain = 0
KHA2 190906Z 35026KT M03/M05 A3013 RMK A01 T10261050  RH  084%=      5-min Rain = 0
KHA2 190907Z 34023G28KT M03/M05 A3014 RMK A01 T10261050  RH  084%=      5-min Rain = 0
KHA2 190908Z 34023G28KT M03/M05 A3014 RMK A01 T10261050  RH  084%=      5-min Rain = 0
KHA2 190909Z 34021KT M03/M05 A3014 RMK A01 T10271050  RH  084%=      5-min Rain = 0
KHA2 190910Z 34024KT M03/M05 A3013 RMK A01 T10271050  RH  084%=      5-min Rain = 0
KHA2 190911Z 34023KT M03/M05 A3014 RMK A01 T10271050  RH  084%=      5-min Rain = 0
KHA2 190912Z 34021G27KT M03/M05 A3014 RMK A01 T10271050  RH  084%=      5-min Rain = 0
KHA2 190913Z 35025KT M03/M05 A3014 RMK A01 T10271050  RH  084%=      5-min Rain = 0
KHA2 190914Z 34022KT M03/M05 A3014 RMK A01 T10271050  RH  084%=      5-min Rain = 0
KHA2 190915Z 34022KT M03/M05 A3014 RMK A01 T10271050  RH  084%=      5-min Rain = 0
KHA2 190916Z 34021KT M03/M05 A3014 RMK A01 T10261049  RH  084%=      5-min Rain = 0
KHA2 190917Z 34021G26KT M03/M05 A3014 RMK A01 T10271049  RH  085%=      5-min Rain = 0
KHA2 190918Z 34020KT M03/M05 A3014 RMK A01 T10271049  RH  085%=      5-min Rain = 0
KHA2 190919Z 34019KT M03/M05 A3014 RMK A01 T10271049  RH  085%=      5-min Rain = 0
KHA2 190920Z 34019KT M03/M05 A3014 RMK A01 T10271048  RH  085%=      5-min Rain = 0
KHA2 190921Z 34018KT M03/M05 A3014 RMK A01 T10271048  RH  085%=      5-min Rain = 0
KHA2 190922Z 34019KT M03/M05 A3014 RMK A01 T10271048  RH  086%=      5-min Rain = 0
KHA2 190923Z 34019KT M03/M05 A3014 RMK A01 T10271047  RH  086%=      5-min Rain = 0
KHA2 190924Z 34019KT M03/M05 A3014 RMK A01 T10261047  RH  086%=      5-min Rain = 0
KHA2 190925Z 34020KT M03/M05 A3014 RMK A01 T10261046  RH  086%=      5-min Rain = 0
KHA2 190926Z 34021KT M03/M05 A3014 RMK A01 T10251046  RH  086%=      5-min Rain = 0
KHA2 190927Z 34021G30KT M03/M05 A3015 RMK A01 T10251046  RH  086%=      5-min Rain = 0
KHA2 190928Z 34026KT M02/M05 A3014 RMK A01 T10241045  RH  085%=      5-min Rain = 0
KHA2 190929Z 34024KT M02/M05 A3014 RMK A01 T10231046  RH  085%=      5-min Rain = 0
KHA2 190930Z 34023G28KT M02/M05 A3014 RMK A01 T10241046  RH  085%=      5-min Rain = 0
KHA2 190931Z 35023G29KT M02/M05 A3014 RMK A01 T10241046  RH  085%=      5-min Rain = 0
KHA2 190932Z 34024KT M02/M05 A3014 RMK A01 T10241046  RH  085%=      5-min Rain = 0
KHA2 190933Z 34024KT M02/M05 A3014 RMK A01 T10231046  RH  085%=      5-min Rain = 0
KHA2 190934Z 35024KT M02/M05 A3014 RMK A01 T10231046  RH  084%=      5-min Rain = 0
KHA2 190935Z 34027KT M02/M05 A3015 RMK A01 T10241046  RH  084%=      5-min Rain = 0
KHA2 190936Z 35022KT M02/M05 A3015 RMK A01 T10241047  RH  084%=      5-min Rain = 0
KHA2 190937Z 35024G29KT M02/M05 A3015 RMK A01 T10241047  RH  084%=      5-min Rain = 0
KHA2 190938Z 35026KT M03/M05 A3015 RMK A01 T10251047  RH  084%=      5-min Rain = 0
KHA2 190939Z 35025KT M02/M05 A3015 RMK A01 T10241047  RH  084%=      5-min Rain = 0
KHA2 190940Z 35023G28KT M03/M05 A3015 RMK A01 T10251048  RH  084%=      5-min Rain = 0
KHA2 190941Z 35025KT M03/M05 A3015 RMK A01 T10251048  RH  084%=      5-min Rain = 0
KHA2 190942Z 35024KT M03/M05 A3015 RMK A01 T10251048  RH  084%=      5-min Rain = 0
KHA2 190943Z 34025KT M03/M05 A3015 RMK A01 T10251048  RH  084%=      5-min Rain = 0
KHA2 190944Z 34021KT M03/M05 A3015 RMK A01 T10251048  RH  085%=      5-min Rain = 0
KHA2 190945Z 34022G28KT M03/M05 A3015 RMK A01 T10251048  RH  085%=      5-min Rain = 0
KHA2 190946Z 34025KT M03/M05 A3015 RMK A01 T10261048  RH  085%=      5-min Rain = 0
KHA2 190947Z 34023KT M03/M05 A3015 RMK A01 T10261048  RH  085%=      5-min Rain = 0
KHA2 190948Z 34023KT M03/M05 A3016 RMK A01 T10261048  RH  085%=      5-min Rain = 0
KHA2 190949Z 34022KT M03/M05 A3016 RMK A01 T10251047  RH  085%=      5-min Rain = 0
KHA2 190950Z 35023KT M03/M05 A3016 RMK A01 T10261048  RH  085%=      5-min Rain = 0
KHA2 190951Z 35021G27KT M03/M05 A3016 RMK A01 T10261048  RH  085%=      5-min Rain = 0
KHA2 190952Z 34022KT M03/M05 A3016 RMK A01 T10261048  RH  085%=      5-min Rain = 0
KHA2 190953Z 34021KT M03/M05 A3016 RMK A01 T10261047  RH  085%=      5-min Rain = 0
KHA2 190954Z 34023KT M03/M05 A3016 RMK A01 T10261047  RH  085%=      5-min Rain = 0
KHA2 190955Z 35023KT M03/M05 A3016 RMK A01 T10261048  RH  085%=      5-min Rain = 0
KHA2 190956Z 34023G28KT M03/M05 A3016 RMK A01 T10251048  RH  085%=      5-min Rain = 0
KHA2 190957Z 34024KT M03/M05 A3016 RMK A01 T10251047  RH  085%=      5-min Rain = 0
KHA2 190958Z 34023KT M03/M05 A3016 RMK A01 T10251048  RH  085%=      5-min Rain = 0
KHA2 190959Z 34023KT M03/M05 A3016 RMK A01 T10251047  RH  085%=      5-min Rain = 0
KHA2 191000Z 34020KT M03/M05 A3016 RMK A01 T10251047  RH  085%=      5-min Rain = 0
KHA2 191001Z 35022KT M03/M05 A3016 RMK A01 T10251047  RH  085%=      5-min Rain = 0
KHA2 191002Z 35024KT M03/M05 A3015 RMK A01 T10251047  RH  085%=      5-min Rain = 0
KHA2 191003Z 35021KT M03/M05 A3016 RMK A01 T10251048  RH  085%=      5-min Rain = 0
KHA2 191004Z 35018KT M03/M05 A3016 RMK A01 T10261048  RH  085%=      5-min Rain = 0
KHA2 191005Z 34023G30KT M03/M05 A3015 RMK A01 T10261048  RH  085%=      5-min Rain = 0
KHA2 191006Z 34024G30KT M03/M05 A3015 RMK A01 T10261048  RH  085%=      5-min Rain = 0
KHA2 191007Z 35023KT M03/M05 A3015 RMK A01 T10261049  RH  084%=      5-min Rain = 0
KHA2 191008Z 34023KT M03/M05 A3015 RMK A01 T10261049  RH  084%=      5-min Rain = 0
KHA2 191009Z 34019KT M03/M05 A3016 RMK A01 T10261049  RH  084%=      5-min Rain = 0
KHA2 191010Z 34018KT M03/M05 A3016 RMK A01 T10271049  RH  084%=      5-min Rain = 0
KHA2 191011Z 34016KT M03/M05 A3016 RMK A01 T10271050  RH  085%=      5-min Rain = 0
KHA2 191012Z 34020G25KT M03/M05 A3016 RMK A01 T10281049  RH  085%=      5-min Rain = 0
KHA2 191013Z 34019KT M03/M05 A3016 RMK A01 T10271049  RH  085%=      5-min Rain = 0
KHA2 191014Z 34020KT M03/M05 A3016 RMK A01 T10281049  RH  085%=      5-min Rain = 0
KHA2 191015Z 34018G25KT M03/M05 A3016 RMK A01 T10271049  RH  085%=      5-min Rain = 0
KHA2 191016Z 34021KT M03/M05 A3016 RMK A01 T10271049  RH  085%=      5-min Rain = 0
KHA2 191017Z 34018KT M03/M05 A3016 RMK A01 T10271049  RH  085%=      5-min Rain = 0
KHA2 191018Z 34021G28KT M03/M05 A3016 RMK A01 T10281049  RH  085%=      5-min Rain = 0
KHA2 191019Z 35023KT M03/M05 A3016 RMK A01 T10281049  RH  085%=      5-min Rain = 0
KHA2 191020Z 34021KT M03/M05 A3016 RMK A01 T10271049  RH  085%=      5-min Rain = 0
KHA2 191021Z 34019G28KT M03/M05 A3016 RMK A01 T10271049  RH  085%=      5-min Rain = 0
KHA2 191022Z 34023G28KT M03/M05 A3016 RMK A01 T10281049  RH  085%=      5-min Rain = 0
KHA2 191023Z 34022KT M03/M05 A3016 RMK A01 T10271049  RH  085%=      5-min Rain = 0
KHA2 191024Z 34022KT M03/M05 A3016 RMK A01 T10271049  RH  085%=      5-min Rain = 0
KHA2 191025Z 34020KT M03/M05 A3016 RMK A01 T10271049  RH  085%=      5-min Rain = 0
KHA2 191026Z 34020G25KT M03/M05 A3016 RMK A01 T10271049  RH  085%=      5-min Rain = 0
KHA2 191027Z 34021KT M03/M05 A3016 RMK A01 T10271049  RH  085%=      5-min Rain = 0
KHA2 191028Z 34020KT M03/M05 A3016 RMK A01 T10271049  RH  085%=      5-min Rain = 0
KHA2 191029Z 34017KT M03/M05 A3016 RMK A01 T10281050  RH  085%=      5-min Rain = 0
KHA2 191030Z 34019KT M03/M05 A3016 RMK A01 T10281050  RH  085%=      5-min Rain = 0
KHA2 191031Z 34018KT M03/M05 A3016 RMK A01 T10291050  RH  085%=      5-min Rain = 0
KHA2 191032Z 34016KT M03/M05 A3017 RMK A01 T10291050  RH  085%=      5-min Rain = 0
KHA2 191033Z 34020KT M03/M05 A3017 RMK A01 T10291050  RH  085%=      5-min Rain = 0
KHA2 191034Z 34018KT M03/M05 A3017 RMK A01 T10291050  RH  086%=      5-min Rain = 0
KHA2 191035Z 33018KT M03/M05 A3017 RMK A01 T10291050  RH  086%=      5-min Rain = 0
KHA2 191036Z 33018KT M03/M05 A3017 RMK A01 T10301050  RH  086%=      5-min Rain = 0
KHA2 191037Z 34020KT M03/M05 A3017 RMK A01 T10301050  RH  086%=      5-min Rain = 0
KHA2 191038Z 34019KT M03/M05 A3017 RMK A01 T10291050  RH  086%=      5-min Rain = 0
KHA2 191039Z 33018KT M03/M05 A3017 RMK A01 T10301050  RH  086%=      5-min Rain = 0
KHA2 191040Z 33017KT M03/M05 A3017 RMK A01 T10301050  RH  086%=      5-min Rain = 0
KHA2 191041Z 33018KT M03/M05 A3017 RMK A01 T10301050  RH  086%=      5-min Rain = 0
KHA2 191042Z 33018KT M03/M05 A3017 RMK A01 T10301050  RH  086%=      5-min Rain = 0
KHA2 191043Z 33016KT M03/M05 A3018 RMK A01 T10301050  RH  086%=      5-min Rain = 0
KHA2 191044Z 33018KT M03/M05 A3018 RMK A01 T10301050  RH  086%=      5-min Rain = 0
KHA2 191045Z 33018KT M03/M05 A3018 RMK A01 T10301050  RH  086%=      5-min Rain = 0
KHA2 191046Z 33017KT M03/M05 A3018 RMK A01 T10301050  RH  086%=      5-min Rain = 0
KHA2 191047Z 33018KT M03/M05 A3018 RMK A01 T10301050  RH  086%=      5-min Rain = 0
KHA2 191048Z 33016KT M03/M05 A3018 RMK A01 T10301050  RH  086%=      5-min Rain = 0
KHA2 191049Z 33018KT M03/M05 A3018 RMK A01 T10301050  RH  086%=      5-min Rain = 0
KHA2 191050Z 33018KT M03/M05 A3018 RMK A01 T10301050  RH  086%=      5-min Rain = 0
KHA2 191051Z 33015KT M03/M05 A3018 RMK A01 T10301050  RH  086%=      5-min Rain = 0
KHA2 191052Z 33015KT M03/M05 A3018 RMK A01 T10311051  RH  086%=      5-min Rain = 0
KHA2 191053Z 33016G21KT M03/M05 A3018 RMK A01 T10311050  RH  087%=      5-min Rain = 0
KHA2 191054Z 33017KT M03/M05 A3018 RMK A01 T10321050  RH  087%=      5-min Rain = 0
KHA2 191055Z 33017KT M03/M05 A3018 RMK A01 T10311050  RH  087%=      5-min Rain = 0
KHA2 191056Z 33016KT M03/M05 A3018 RMK A01 T10311050  RH  087%=      5-min Rain = 0
KHA2 191057Z 33016KT M03/M05 A3018 RMK A01 T10311050  RH  087%=      5-min Rain = 0
KHA2 191058Z 33018KT M03/M05 A3018 RMK A01 T10321050  RH  087%=      5-min Rain = 0
KHA2 191059Z 33017KT M03/M05 A3018 RMK A01 T10311050  RH  087%=      5-min Rain = 0
KHA2 191100Z 33018KT M03/M05 A3018 RMK A01 T10311050  RH  087%=      5-min Rain = 0
KHA2 191101Z 33018KT M03/M05 A3018 RMK A01 T10311050  RH  087%=      5-min Rain = 0
KHA2 191102Z 33018KT M03/M05 A3018 RMK A01 T10311050  RH  087%=      5-min Rain = 0
KHA2 191103Z 33018KT M03/M05 A3018 RMK A01 T10311050  RH  087%=      5-min Rain = 0
KHA2 191104Z 33016KT M03/M05 A3018 RMK A01 T10311050  RH  087%=      5-min Rain = 0
KHA2 191105Z 33016KT M03/M05 A3018 RMK A01 T10311050  RH  087%=      5-min Rain = 0
KHA2 191106Z 33015G20KT M03/M05 A3018 RMK A01 T10321050  RH  087%=      5-min Rain = 0
KHA2 191107Z 33017KT M03/M05 A3018 RMK A01 T10321050  RH  087%=      5-min Rain = 0
KHA2 191108Z 34017KT M03/M05 A3018 RMK A01 T10321050  RH  087%=      5-min Rain = 0
KHA2 191109Z 33016KT M03/M05 A3018 RMK A01 T10321050  RH  087%=      5-min Rain = 0
KHA2 191110Z 33015KT M03/M05 A3018 RMK A01 T10321050  RH  087%=      5-min Rain = 0
KHA2 191111Z 33016KT M03/M05 A3018 RMK A01 T10321050  RH  087%=      5-min Rain = 0
KHA2 191112Z 33015KT M03/M05 A3018 RMK A01 T10321050  RH  087%=      5-min Rain = 0
KHA2 191113Z 33016KT M03/M05 A3018 RMK A01 T10321050  RH  087%=      5-min Rain = 0
KHA2 191114Z 33015KT M03/M05 A3018 RMK A01 T10321050  RH  087%=      5-min Rain = 0
KHA2 191115Z 33013KT M03/M05 A3018 RMK A01 T10331051  RH  087%=      5-min Rain = 0
KHA2 191116Z 34012KT M03/M05 A3018 RMK A01 T10331051  RH  087%=      5-min Rain = 0
KHA2 191117Z 33013KT M03/M05 A3018 RMK A01 T10341052  RH  088%=      5-min Rain = 0
KHA2 191118Z 33013KT M03/M05 A3018 RMK A01 T10341052  RH  088%=      5-min Rain = 0
KHA2 191119Z 33012KT M04/M05 A3018 RMK A01 T10351052  RH  088%=      5-min Rain = 0
KHA2 191120Z 33013KT M04/M05 A3018 RMK A01 T10351052  RH  088%=      5-min Rain = 0
KHA2 191121Z 33013KT M04/M05 A3018 RMK A01 T10351052  RH  088%=      5-min Rain = 0
KHA2 191122Z 33013KT M04/M05 A3018 RMK A01 T10351052  RH  088%=      5-min Rain = 0
KHA2 191123Z 33013KT M04/M05 A3018 RMK A01 T10351052  RH  088%=      5-min Rain = 0
KHA2 191124Z 33012KT M04/M05 A3018 RMK A01 T10361052  RH  088%=      5-min Rain = 0
KHA2 191125Z 33013KT M04/M05 A3018 RMK A01 T10361053  RH  088%=      5-min Rain = 0
KHA2 191126Z 33013KT M04/M05 A3018 RMK A01 T10361052  RH  088%=      5-min Rain = 0
KHA2 191127Z 33013KT M04/M05 A3018 RMK A01 T10361052  RH  088%=      5-min Rain = 0
KHA2 191128Z 33011KT M04/M05 A3018 RMK A01 T10361052  RH  088%=      5-min Rain = 0
KHA2 191129Z 33011KT M04/M05 A3018 RMK A01 T10361052  RH  088%=      5-min Rain = 0
KHA2 191130Z 33013KT M04/M05 A3018 RMK A01 T10371053  RH  089%=      5-min Rain = 0
KHA2 191131Z 34012KT M04/M05 A3018 RMK A01 T10371053  RH  089%=      5-min Rain = 0
KHA2 191132Z 34013KT M04/M05 A3018 RMK A01 T10371053  RH  089%=      5-min Rain = 0
KHA2 191133Z 33011KT M04/M05 A3018 RMK A01 T10371053  RH  089%=      5-min Rain = 0
KHA2 191134Z 34011KT M04/M05 A3018 RMK A01 T10371053  RH  089%=      5-min Rain = 0
KHA2 191135Z 34013KT M04/M05 A3018 RMK A01 T10371053  RH  089%=      5-min Rain = 0
KHA2 191136Z 34012KT M04/M05 A3018 RMK A01 T10371053  RH  089%=      5-min Rain = 0
KHA2 191137Z 34013KT M04/M05 A3018 RMK A01 T10371053  RH  089%=      5-min Rain = 0
KHA2 191138Z 34012KT M04/M05 A3018 RMK A01 T10371054  RH  089%=      5-min Rain = 0
KHA2 191139Z 34012KT M04/M05 A3018 RMK A01 T10371053  RH  089%=      5-min Rain = 0
KHA2 191140Z 34012KT M04/M05 A3018 RMK A01 T10371053  RH  089%=      5-min Rain = 0
KHA2 191141Z 34012KT M04/M05 A3018 RMK A01 T10371054  RH  089%=      5-min Rain = 0
KHA2 191142Z 34012KT M04/M05 A3018 RMK A01 T10381054  RH  089%=      5-min Rain = 0
KHA2 191143Z 35012KT M04/M05 A3018 RMK A01 T10381054  RH  089%=      5-min Rain = 0
KHA2 191144Z 35013KT M04/M05 A3018 RMK A01 T10381054  RH  089%=      5-min Rain = 0
KHA2 191145Z 35014KT M04/M05 A3018 RMK A01 T10381054  RH  089%=      5-min Rain = 0
KHA2 191146Z 35013KT M04/M05 A3018 RMK A01 T10381054  RH  089%=      5-min Rain = 0
KHA2 191147Z 35013KT M04/M05 A3018 RMK A01 T10381054  RH  089%=      5-min Rain = 0
KHA2 191148Z 35013KT M04/M05 A3018 RMK A01 T10381054  RH  089%=      5-min Rain = 0
KHA2 191149Z 35013KT M04/M05 A3017 RMK A01 T10381054  RH  089%=      5-min Rain = 0
KHA2 191150Z 35013KT M04/M05 A3017 RMK A01 T10381054  RH  089%=      5-min Rain = 0
KHA2 191151Z 35014KT M04/M05 A3017 RMK A01 T10381054  RH  089%=      5-min Rain = 0
KHA2 191152Z 35013KT M04/M05 A3017 RMK A01 T10381054  RH  089%=      5-min Rain = 0
KHA2 191153Z 35014KT M04/M05 A3017 RMK A01 T10381054  RH  089%=      5-min Rain = 0
KHA2 191154Z 35015KT M04/M05 A3017 RMK A01 T10381054  RH  089%=      5-min Rain = 0
KHA2 191155Z 35015KT M04/M05 A3017 RMK A01 T10381054  RH  089%=      5-min Rain = 0
KHA2 191156Z 35014KT M04/M05 A3017 RMK A01 T10381054  RH  089%=      5-min Rain = 0
KHA2 191157Z 36014KT M04/M05 A3017 RMK A01 T10381054  RH  089%=      5-min Rain = 0
KHA2 191158Z 35014KT M04/M05 A3017 RMK A01 T10381054  RH  088%=      5-min Rain = 0
KHA2 191159Z 36014KT M04/M05 A3017 RMK A01 T10381054  RH  088%=      5-min Rain = 0
KHA2 191200Z 35014KT M04/M05 A3017 RMK A01 T10381054  RH  089%=      5-min Rain = 0
KHA2 191201Z 35014KT M04/M05 A3017 RMK A01 T10371054  RH  089%=      5-min Rain = 0
KHA2 191202Z 35014KT M04/M05 A3017 RMK A01 T10381054  RH  089%=      5-min Rain = 0
KHA2 191203Z 35013KT M04/M05 A3017 RMK A01 T10381054  RH  089%=      5-min Rain = 0
KHA2 191204Z 35013KT M04/M05 A3017 RMK A01 T10381054  RH  089%=      5-min Rain = 0
KHA2 191205Z 35013KT M04/M06 A3017 RMK A01 T10391055  RH  089%=      5-min Rain = 0
KHA2 191206Z 35013KT M04/M05 A3017 RMK A01 T10381054  RH  089%=      5-min Rain = 0
KHA2 191207Z 35013KT M04/M05 A3017 RMK A01 T10391054  RH  089%=      5-min Rain = 0
KHA2 191208Z 35014KT M04/M06 A3018 RMK A01 T10391055  RH  089%=      5-min Rain = 0
KHA2 191209Z 35015KT M04/M05 A3018 RMK A01 T10381054  RH  089%=      5-min Rain = 0
KHA2 191210Z 35014KT M04/M05 A3018 RMK A01 T10381054  RH  089%=      5-min Rain = 0
KHA2 191211Z 35013KT M04/M05 A3018 RMK A01 T10381054  RH  089%=      5-min Rain = 0
KHA2 191212Z 35014KT M04/M05 A3018 RMK A01 T10381054  RH  088%=      5-min Rain = 0
KHA2 191213Z 35015KT M04/M05 A3018 RMK A01 T10381054  RH  088%=      5-min Rain = 0
KHA2 191214Z 35014KT M04/M05 A3018 RMK A01 T10371054  RH  088%=      5-min Rain = 0
KHA2 191215Z 35013KT M04/M05 A3018 RMK A01 T10371054  RH  088%=      5-min Rain = 0
KHA2 191216Z 35014KT M04/M06 A3018 RMK A01 T10381055  RH  088%=      5-min Rain = 0
KHA2 191217Z 35013KT M04/M06 A3018 RMK A01 T10381055  RH  088%=      5-min Rain = 0
KHA2 191218Z 35013KT M04/M06 A3018 RMK A01 T10381055  RH  088%=      5-min Rain = 0
KHA2 191219Z 35014KT M04/M06 A3018 RMK A01 T10381055  RH  088%=      5-min Rain = 0
KHA2 191220Z 35013KT M04/M05 A3018 RMK A01 T10381054  RH  088%=      5-min Rain = 0
KHA2 191221Z 35013KT M04/M06 A3018 RMK A01 T10381055  RH  088%=      5-min Rain = 0
KHA2 191222Z 35012KT M04/M06 A3018 RMK A01 T10381055  RH  088%=      5-min Rain = 0
KHA2 191223Z 35012KT M04/M06 A3019 RMK A01 T10391055  RH  088%=      5-min Rain = 0
KHA2 191224Z 35012KT M04/M06 A3019 RMK A01 T10391055  RH  088%=      5-min Rain = 0
KHA2 191225Z 35011KT M04/M06 A3019 RMK A01 T10391056  RH  088%=      5-min Rain = 0
KHA2 191226Z 34012KT M04/M06 A3019 RMK A01 T10401056  RH  089%=      5-min Rain = 0
KHA2 191227Z 34011KT M04/M06 A3019 RMK A01 T10401056  RH  089%=      5-min Rain = 0
KHA2 191228Z 34013KT M04/M06 A3019 RMK A01 T10401056  RH  089%=      5-min Rain = 0
KHA2 191229Z 34011KT M04/M06 A3019 RMK A01 T10401056  RH  089%=      5-min Rain = 0
KHA2 191230Z 34011KT M04/M06 A3019 RMK A01 T10411057  RH  089%=      5-min Rain = 0
KHA2 191231Z 34011KT M04/M06 A3019 RMK A01 T10411056  RH  089%=      5-min Rain = 0
KHA2 191232Z 34012KT M04/M06 A3019 RMK A01 T10411056  RH  089%=      5-min Rain = 0
KHA2 191233Z 34010KT M04/M06 A3019 RMK A01 T10411056  RH  089%=      5-min Rain = 0
KHA2 191234Z 34011KT M04/M06 A3019 RMK A01 T10421057  RH  089%=      5-min Rain = 0
KHA2 191235Z 34011KT M04/M06 A3019 RMK A01 T10421057  RH  089%=      5-min Rain = 0
KHA2 191236Z 34011KT M04/M06 A3019 RMK A01 T10421057  RH  089%=      5-min Rain = 0
KHA2 191237Z 34011KT M04/M06 A3019 RMK A01 T10421058  RH  089%=      5-min Rain = 0
KHA2 191238Z 34011KT M04/M06 A3019 RMK A01 T10431058  RH  089%=      5-min Rain = 0
KHA2 191239Z 34011KT M04/M06 A3019 RMK A01 T10431058  RH  089%=      5-min Rain = 0
KHA2 191240Z 34011KT M04/M06 A3019 RMK A01 T10431058  RH  089%=      5-min Rain = 0
KHA2 191241Z 34011KT M04/M06 A3019 RMK A01 T10431058  RH  089%=      5-min Rain = 0
KHA2 191242Z 34011KT M04/M06 A3019 RMK A01 T10431058  RH  089%=      5-min Rain = 0
KHA2 191243Z 34011KT M04/M06 A3019 RMK A01 T10441058  RH  089%=      5-min Rain = 0
KHA2 191244Z 34011KT M04/M06 A3019 RMK A01 T10431058  RH  090%=      5-min Rain = 0
KHA2 191245Z 34011KT M04/M06 A3019 RMK A01 T10441059  RH  090%=      5-min Rain = 0
KHA2 191246Z 33012KT M04/M06 A3019 RMK A01 T10441059  RH  090%=      5-min Rain = 0
KHA2 191247Z 33011KT M04/M06 A3019 RMK A01 T10441058  RH  090%=      5-min Rain = 0
KHA2 191248Z 33011KT M04/M06 A3019 RMK A01 T10441059  RH  090%=      5-min Rain = 0
KHA2 191249Z 33010KT M04/M06 A302 RMK A01 T10441059  RH  090%=      5-min Rain = 0
KHA2 191250Z 33010KT M04/M06 A302 RMK A01 T10441059  RH  089%=      5-min Rain = 0
KHA2 191251Z 33009KT M04/M06 A302 RMK A01 T10441059  RH  089%=      5-min Rain = 0
KHA2 191252Z 33010KT M05/M06 A302 RMK A01 T10451060  RH  089%=      5-min Rain = 0
KHA2 191253Z 32010KT M05/M06 A302 RMK A01 T10451060  RH  089%=      5-min Rain = 0
KHA2 191254Z 32011KT M05/M06 A302 RMK A01 T10451060  RH  089%=      5-min Rain = 0
KHA2 191255Z 33011KT M05/M06 A302 RMK A01 T10451060  RH  089%=      5-min Rain = 0
KHA2 191256Z 32011KT M05/M06 A302 RMK A01 T10451060  RH  089%=      5-min Rain = 0
KHA2 191257Z 32012KT M05/M06 A302 RMK A01 T10461061  RH  089%=      5-min Rain = 0
KHA2 191258Z 32012KT M05/M06 A3021 RMK A01 T10461061  RH  089%=      5-min Rain = 0
KHA2 191259Z 32012KT M05/M06 A3021 RMK A01 T10461061  RH  089%=      5-min Rain = 0
KHA2 191300Z 32012KT M05/M06 A3021 RMK A01 T10471061  RH  089%=      5-min Rain = 0
KHA2 191301Z 32012KT M05/M06 A3021 RMK A01 T10471062  RH  089%=      5-min Rain = 0
KHA2 191302Z 32012KT M05/M06 A3021 RMK A01 T10471062  RH  089%=      5-min Rain = 0
KHA2 191303Z 32012KT M05/M06 A3021 RMK A01 T10481063  RH  089%=      5-min Rain = 0
KHA2 191304Z 32012KT M05/M06 A3021 RMK A01 T10481063  RH  090%=      5-min Rain = 0
KHA2 191305Z 33013KT M05/M06 A3021 RMK A01 T10481062  RH  090%=      5-min Rain = 0
KHA2 191306Z 32013KT M05/M06 A3021 RMK A01 T10481062  RH  090%=      5-min Rain = 0
KHA2 191307Z 33011KT M05/M06 A3021 RMK A01 T10481062  RH  090%=      5-min Rain = 0
KHA2 191308Z 33011KT M05/M06 A3021 RMK A01 T10481063  RH  090%=      5-min Rain = 0
KHA2 191309Z 33011KT M05/M06 A3021 RMK A01 T10491063  RH  090%=      5-min Rain = 0
KHA2 191310Z 33011KT M05/M06 A3021 RMK A01 T10491063  RH  090%=      5-min Rain = 0
KHA2 191311Z 33011KT M05/M06 A3021 RMK A01 T10501064  RH  090%=      5-min Rain = 0
KHA2 191312Z 33011KT M05/M07 A3021 RMK A01 T10511065  RH  090%=      5-min Rain = 0
KHA2 191313Z 33012KT M05/M06 A3021 RMK A01 T10511064  RH  090%=      5-min Rain = 0
KHA2 191314Z 33011KT M05/M06 A3021 RMK A01 T10511064  RH  090%=      5-min Rain = 0
KHA2 191315Z 33011KT M05/M06 A3021 RMK A01 T10511064  RH  090%=      5-min Rain = 0
KHA2 191316Z 32012KT M05/M07 A3021 RMK A01 T10511065  RH  090%=      5-min Rain = 0
KHA2 191317Z 32011KT M05/M07 A3021 RMK A01 T10511065  RH  090%=      5-min Rain = 0
KHA2 191318Z 33011KT M05/M07 A3021 RMK A01 T10511065  RH  090%=      5-min Rain = 0
KHA2 191319Z 32011KT M05/M06 A3021 RMK A01 T10511064  RH  090%=      5-min Rain = 0
KHA2 191320Z 33010KT M05/M06 A3022 RMK A01 T10511064  RH  090%=      5-min Rain = 0
KHA2 191321Z 32011KT M05/M06 A3022 RMK A01 T10511064  RH  090%=      5-min Rain = 0
KHA2 191322Z 33011KT M05/M06 A3022 RMK A01 T10511064  RH  090%=      5-min Rain = 0
KHA2 191323Z 33010KT M05/M06 A3022 RMK A01 T10511064  RH  090%=      5-min Rain = 0
KHA2 191324Z 33010KT M05/M07 A3022 RMK A01 T10521065  RH  090%=      5-min Rain = 0
KHA2 191325Z 33010KT M05/M07 A3022 RMK A01 T10521066  RH  090%=      5-min Rain = 0
KHA2 191326Z 33010KT M05/M07 A3022 RMK A01 T10521065  RH  090%=      5-min Rain = 0
KHA2 191327Z 33010KT M05/M07 A3022 RMK A01 T10531066  RH  090%=      5-min Rain = 0
KHA2 191328Z 33010KT M05/M07 A3022 RMK A01 T10531067  RH  090%=      5-min Rain = 0
KHA2 191329Z 33010KT M05/M07 A3022 RMK A01 T10531067  RH  090%=      5-min Rain = 0
KHA2 191330Z 33010KT M05/M07 A3022 RMK A01 T10541067  RH  090%=      5-min Rain = 0
KHA2 191331Z 33010KT M05/M07 A3022 RMK A01 T10531066  RH  091%=      5-min Rain = 0
KHA2 191332Z 33009KT M05/M07 A3022 RMK A01 T10541067  RH  091%=      5-min Rain = 0
KHA2 191333Z 33010KT M06/M07 A3022 RMK A01 T10551068  RH  090%=      5-min Rain = 0
KHA2 191334Z 33009KT M06/M07 A3022 RMK A01 T10551068  RH  091%=      5-min Rain = 0
KHA2 191335Z 33009KT M06/M07 A3022 RMK A01 T10551068  RH  091%=      5-min Rain = 0
KHA2 191336Z 33010KT M06/M07 A3022 RMK A01 T10561069  RH  091%=      5-min Rain = 0
KHA2 191337Z 33010KT M06/M07 A3022 RMK A01 T10561069  RH  091%=      5-min Rain = 0
KHA2 191338Z 33009KT M06/M07 A3022 RMK A01 T10561068  RH  091%=      5-min Rain = 0
KHA2 191339Z 33009KT M06/M07 A3022 RMK A01 T10561068  RH  091%=      5-min Rain = 0
KHA2 191340Z 33008KT M06/M07 A3022 RMK A01 T10561068  RH  091%=      5-min Rain = 0
KHA2 191341Z 33008KT M06/M07 A3022 RMK A01 T10561068  RH  091%=      5-min Rain = 0
KHA2 191342Z 33008KT M06/M07 A3022 RMK A01 T10561068  RH  091%=      5-min Rain = 0
KHA2 191343Z 33008KT M06/M07 A3022 RMK A01 T10561069  RH  091%=      5-min Rain = 0
KHA2 191344Z 33008KT M06/M07 A3022 RMK A01 T10561069  RH  091%=      5-min Rain = 0
KHA2 191345Z 33008KT M06/M07 A3022 RMK A01 T10561069  RH  091%=      5-min Rain = 0
KHA2 191346Z 33009KT M06/M07 A3022 RMK A01 T10561069  RH  091%=      5-min Rain = 0
KHA2 191347Z 33010KT M06/M07 A3023 RMK A01 T10561068  RH  091%=      5-min Rain = 0
KHA2 191348Z 33010KT M06/M07 A3023 RMK A01 T10561068  RH  091%=      5-min Rain = 0
KHA2 191349Z 33010KT M06/M07 A3023 RMK A01 T10561068  RH  091%=      5-min Rain = 0
KHA2 191350Z 33009KT M06/M07 A3023 RMK A01 T10551067  RH  091%=      5-min Rain = 0
KHA2 191351Z 33009KT M06/M07 A3023 RMK A01 T10551067  RH  091%=      5-min Rain = 0
KHA2 191352Z 33009KT M06/M07 A3023 RMK A01 T10551067  RH  091%=      5-min Rain = 0
KHA2 191353Z 33009KT M06/M07 A3023 RMK A01 T10551068  RH  091%=      5-min Rain = 0
KHA2 191354Z 33009KT M06/M07 A3023 RMK A01 T10561069  RH  091%=      5-min Rain = 0
KHA2 191355Z 33009KT M06/M07 A3023 RMK A01 T10551068  RH  091%=      5-min Rain = 0
KHA2 191356Z 33009KT M06/M07 A3023 RMK A01 T10561069  RH  091%=      5-min Rain = 0
KHA2 191357Z 34009KT M06/M07 A3024 RMK A01 T10561069  RH  091%=      5-min Rain = 0
KHA2 191358Z 34009KT M06/M07 A3024 RMK A01 T10561068  RH  091%=      5-min Rain = 0
KHA2 191359Z 34009KT M06/M07 A3024 RMK A01 T10561069  RH  091%=      5-min Rain = 0
KHA2 191400Z 34009KT M06/M07 A3024 RMK A01 T10551069  RH  090%=      5-min Rain = 0
KHA2 191401Z 34009KT M06/M07 A3024 RMK A01 T10561069  RH  090%=      5-min Rain = 0
KHA2 191402Z 33010KT M06/M07 A3024 RMK A01 T10561069  RH  090%=      5-min Rain = 0
KHA2 191403Z 34010KT M06/M07 A3024 RMK A01 T10551068  RH  090%=      5-min Rain = 0
KHA2 191404Z 34010KT M06/M07 A3024 RMK A01 T10551068  RH  090%=      5-min Rain = 0
KHA2 191405Z 33009KT M05/M07 A3025 RMK A01 T10541068  RH  090%=      5-min Rain = 0
KHA2 191406Z 34010KT M05/M07 A3024 RMK A01 T10541067  RH  090%=      5-min Rain = 0
KHA2 191407Z 33010KT M05/M07 A3025 RMK A01 T10531067  RH  090%=      5-min Rain = 0
KHA2 191408Z 33010KT M05/M07 A3025 RMK A01 T10531067  RH  090%=      5-min Rain = 0
KHA2 191409Z 34010KT M05/M07 A3025 RMK A01 T10521066  RH  090%=      5-min Rain = 0
KHA2 191410Z 34010KT M05/M07 A3025 RMK A01 T10511065  RH  090%=      5-min Rain = 0
KHA2 191411Z 34010KT M05/M06 A3025 RMK A01 T10491064  RH  090%=      5-min Rain = 0
KHA2 191412Z 34010KT M05/M06 A3025 RMK A01 T10471062  RH  090%=      5-min Rain = 0
KHA2 191413Z 33010KT M05/M06 A3025 RMK A01 T10461061  RH  089%=      5-min Rain = 0
KHA2 191414Z 33010KT M05/M06 A3025 RMK A01 T10451060  RH  089%=      5-min Rain = 0
KHA2 191415Z 33011KT M04/M06 A3025 RMK A01 T10431059  RH  089%=      5-min Rain = 0
KHA2 191416Z 33011KT M04/M06 A3025 RMK A01 T10421058  RH  088%=      5-min Rain = 0
KHA2 191417Z 33012KT M04/M06 A3025 RMK A01 T10411058  RH  088%=      5-min Rain = 0
KHA2 191418Z 33012KT M04/M06 A3025 RMK A01 T10401057  RH  088%=      5-min Rain = 0
KHA2 191419Z 33012KT M04/M06 A3025 RMK A01 T10391057  RH  087%=      5-min Rain = 0
KHA2 191420Z 33012KT M04/M06 A3025 RMK A01 T10381057  RH  087%=      5-min Rain = 0
KHA2 191421Z 33011KT M04/M06 A3025 RMK A01 T10381057  RH  087%=      5-min Rain = 0
KHA2 191422Z 33012KT M04/M06 A3025 RMK A01 T10381057  RH  086%=      5-min Rain = 0
KHA2 191423Z 33011KT M04/M06 A3025 RMK A01 T10381057  RH  086%=      5-min Rain = 0
KHA2 191424Z 33011KT M04/M06 A3025 RMK A01 T10381057  RH  086%=      5-min Rain = 0
KHA2 191425Z 33011KT M04/M06 A3025 RMK A01 T10371057  RH  086%=      5-min Rain = 0
KHA2 191426Z 33010KT M04/M06 A3025 RMK A01 T10381057  RH  086%=      5-min Rain = 0
KHA2 191427Z 33010KT M04/M06 A3025 RMK A01 T10381057  RH  086%=      5-min Rain = 0
KHA2 191428Z 34010KT M04/M06 A3025 RMK A01 T10381057  RH  086%=      5-min Rain = 0
KHA2 191429Z 33010KT M04/M06 A3025 RMK A01 T10381057  RH  086%=      5-min Rain = 0
KHA2 191430Z 33010KT M04/M06 A3025 RMK A01 T10371057  RH  086%=      5-min Rain = 0
KHA2 191431Z 33010KT M04/M06 A3025 RMK A01 T10371057  RH  086%=      5-min Rain = 0
KHA2 191432Z 33010KT M04/M06 A3025 RMK A01 T10371057  RH  086%=      5-min Rain = 0
KHA2 191433Z 33010KT M04/M06 A3025 RMK A01 T10371057  RH  086%=      5-min Rain = 0
KHA2 191434Z 33010KT M04/M06 A3025 RMK A01 T10371056  RH  086%=      5-min Rain = 0
KHA2 191435Z 33010KT M04/M06 A3025 RMK A01 T10361056  RH  086%=      5-min Rain = 0
KHA2 191436Z 33009KT M04/M06 A3026 RMK A01 T10361055  RH  086%=      5-min Rain = 0
KHA2 191437Z 33010KT M04/M06 A3026 RMK A01 T10361055  RH  086%=      5-min Rain = 0
KHA2 191438Z 33009KT M04/M06 A3026 RMK A01 T10351055  RH  086%=      5-min Rain = 0
KHA2 191439Z 33010KT M04/M06 A3026 RMK A01 T10351055  RH  086%=      5-min Rain = 0
KHA2 191440Z 33010KT M04/M06 A3026 RMK A01 T10351055  RH  086%=      5-min Rain = 0
KHA2 191441Z 33010KT M03/M05 A3026 RMK A01 T10341054  RH  086%=      5-min Rain = 0
KHA2 191442Z 33010KT M03/M05 A3026 RMK A01 T10341054  RH  086%=      5-min Rain = 0
KHA2 191443Z 33010KT M03/M05 A3026 RMK A01 T10341054  RH  086%=      5-min Rain = 0
KHA2 191444Z 33011KT M03/M05 A3026 RMK A01 T10331054  RH  086%=      5-min Rain = 0
KHA2 191445Z 33010KT M03/M05 A3026 RMK A01 T10341054  RH  086%=      5-min Rain = 0
KHA2 191446Z 33009KT M03/M05 A3026 RMK A01 T10331054  RH  086%=      5-min Rain = 0
KHA2 191447Z 33010KT M03/M05 A3026 RMK A01 T10331054  RH  086%=      5-min Rain = 0
KHA2 191448Z 33010KT M03/M05 A3026 RMK A01 T10331054  RH  086%=      5-min Rain = 0
KHA2 191449Z 33010KT M03/M05 A3026 RMK A01 T10331053  RH  086%=      5-min Rain = 0
KHA2 191450Z 33009KT M03/M05 A3026 RMK A01 T10321053  RH  086%=      5-min Rain = 0
KHA2 191451Z 33009KT M03/M05 A3026 RMK A01 T10321053  RH  086%=      5-min Rain = 0
KHA2 191452Z 33009KT M03/M05 A3026 RMK A01 T10311052  RH  086%=      5-min Rain = 0
KHA2 191453Z 33010KT M03/M05 A3026 RMK A01 T10311052  RH  086%=      5-min Rain = 0
KHA2 191454Z 33010KT M03/M05 A3026 RMK A01 T10311052  RH  085%=      5-min Rain = 0
KHA2 191455Z 33009KT M03/M05 A3026 RMK A01 T10311052  RH  085%=      5-min Rain = 0
KHA2 191456Z 33010KT M03/M05 A3026 RMK A01 T10301051  RH  085%=      5-min Rain = 0
KHA2 191457Z 33010KT M03/M05 A3026 RMK A01 T10291051  RH  085%=      5-min Rain = 0
KHA2 191458Z 33009KT M03/M05 A3027 RMK A01 T10291051  RH  085%=      5-min Rain = 0
KHA2 191459Z 33009KT M03/M05 A3027 RMK A01 T10281050  RH  085%=      5-min Rain = 0
KHA2 191500Z 33010KT M03/M05 A3027 RMK A01 T10281049  RH  085%=      5-min Rain = 0
KHA2 191501Z 33010KT M03/M05 A3027 RMK A01 T10271050  RH  085%=      5-min Rain = 0
KHA2 191502Z 33010KT M03/M05 A3027 RMK A01 T10271050  RH  084%=      5-min Rain = 0
KHA2 191503Z 33011KT M03/M05 A3027 RMK A01 T10261049  RH  084%=      5-min Rain = 0
KHA2 191504Z 33011KT M03/M05 A3027 RMK A01 T10261049  RH  084%=      5-min Rain = 0
KHA2 191505Z 33010KT M03/M05 A3027 RMK A01 T10251049  RH  084%=      5-min Rain = 0
KHA2 191506Z 33009KT M02/M05 A3027 RMK A01 T10241048  RH  084%=      5-min Rain = 0
KHA2 191507Z 34012KT M02/M05 A3027 RMK A01 T10241048  RH  084%=      5-min Rain = 0
KHA2 191508Z 34011KT M02/M05 A3027 RMK A01 T10231047  RH  084%=      5-min Rain = 0
KHA2 191509Z 34012KT M02/M05 A3027 RMK A01 T10221047  RH  083%=      5-min Rain = 0
KHA2 191510Z 34013KT M02/M05 A3027 RMK A01 T10221047  RH  083%=      5-min Rain = 0
KHA2 191511Z 34012KT M02/M05 A3027 RMK A01 T10211047  RH  082%=      5-min Rain = 0
KHA2 191512Z 34012KT M02/M05 A3027 RMK A01 T10211047  RH  082%=      5-min Rain = 0
KHA2 191513Z 34012KT M02/M05 A3027 RMK A01 T10201046  RH  083%=      5-min Rain = 0
KHA2 191514Z 34013KT M02/M05 A3027 RMK A01 T10201046  RH  082%=      5-min Rain = 0
KHA2 191515Z 34012KT M02/M05 A3027 RMK A01 T10191045  RH  082%=      5-min Rain = 0
KHA2 191516Z 34013KT M02/M05 A3027 RMK A01 T10191045  RH  082%=      5-min Rain = 0
KHA2 191517Z 34012KT M02/M05 A3027 RMK A01 T10191046  RH  082%=      5-min Rain = 0
KHA2 191518Z 34012KT M02/M05 A3027 RMK A01 T10191045  RH  082%=      5-min Rain = 0
KHA2 191519Z 34012KT M02/M04 A3027 RMK A01 T10181044  RH  083%=      5-min Rain = 0
KHA2 191520Z 34014KT M02/M04 A3027 RMK A01 T10181044  RH  082%=      5-min Rain = 0
KHA2 191521Z 34013KT M02/M05 A3027 RMK A01 T10181045  RH  082%=      5-min Rain = 0
KHA2 191522Z 34013KT M02/M04 A3028 RMK A01 T10171044  RH  082%=      5-min Rain = 0
KHA2 191523Z 34013KT M02/M04 A3028 RMK A01 T10171043  RH  082%=      5-min Rain = 0
KHA2 191524Z 34014KT M02/M04 A3028 RMK A01 T10171042  RH  083%=      5-min Rain = 0
KHA2 191525Z 34013KT M02/M04 A3028 RMK A01 T10151042  RH  082%=      5-min Rain = 0
KHA2 191526Z 34015KT M02/M04 A3028 RMK A01 T10151041  RH  082%=      5-min Rain = 0
KHA2 191527Z 34014KT M01/M04 A3028 RMK A01 T10141041  RH  082%=      5-min Rain = 0
KHA2 191528Z 34011KT M01/M04 A3028 RMK A01 T10131041  RH  081%=      5-min Rain = 0
KHA2 191529Z 34012KT M01/M04 A3028 RMK A01 T10121038  RH  083%=      5-min Rain = 0
KHA2 191530Z 34012KT M01/M04 A3028 RMK A01 T10111037  RH  082%=      5-min Rain = 0
KHA2 191531Z 34011KT M01/M04 A3028 RMK A01 T10101036  RH  083%=      5-min Rain = 0
KHA2 191532Z 35011KT M01/M04 A3028 RMK A01 T10091035  RH  082%=      5-min Rain = 0
KHA2 191533Z 35012KT M01/M03 A3028 RMK A01 T10071034  RH  082%=      5-min Rain = 0
KHA2 191534Z 35014KT M01/M04 A3028 RMK A01 T10071035  RH  081%=      5-min Rain = 0
KHA2 191535Z 35013KT M01/M04 A3028 RMK A01 T10071037  RH  080%=      5-min Rain = 0
KHA2 191536Z 34013KT M01/M04 A3028 RMK A01 T10071036  RH  080%=      5-min Rain = 0
KHA2 191537Z 34013KT M01/M04 A3029 RMK A01 T10061036  RH  080%=      5-min Rain = 0
KHA2 191538Z 35014KT M01/M04 A3029 RMK A01 T10061036  RH  080%=      5-min Rain = 0
KHA2 191539Z 35013KT M01/M04 A3029 RMK A01 T10051036  RH  080%=      5-min Rain = 0
KHA2 191540Z 35014KT M00/M03 A3029 RMK A01 T10041033  RH  081%=      5-min Rain = 0
KHA2 191541Z 35015KT M00/M04 A3029 RMK A01 T10041035  RH  079%=      5-min Rain = 0
KHA2 191542Z 35013KT M00/M04 A3029 RMK A01 T10041035  RH  079%=      5-min Rain = 0
KHA2 191543Z 35012KT M00/M04 A3029 RMK A01 T10041035  RH  079%=      5-min Rain = 0
KHA2 191544Z 34012KT M00/M03 A3029 RMK A01 T10031034  RH  080%=      5-min Rain = 0
KHA2 191545Z 35011KT M00/M03 A3029 RMK A01 T10021032  RH  080%=      5-min Rain = 0
KHA2 191546Z 34013KT M00/M03 A3029 RMK A01 T10011031  RH  080%=      5-min Rain = 0
KHA2 191547Z 34014KT M00/M03 A3029 RMK A01 T10011033  RH  079%=      5-min Rain = 0
KHA2 191548Z 34013KT M00/M03 A3029 RMK A01 T10011034  RH  079%=      5-min Rain = 0
KHA2 191549Z 34013KT M00/M03 A3029 RMK A01 T10011034  RH  079%=      5-min Rain = 0
KHA2 191550Z 34013KT M00/M03 A3029 RMK A01 T10011033  RH  079%=      5-min Rain = 0
KHA2 191551Z 34014KT M00/M03 A3029 RMK A01 T10011034  RH  078%=      5-min Rain = 0
KHA2 191552Z 34012KT 00/03 A3029 RMK A01 T00-00-33  RH  079%=      5-min Rain = 0
KHA2 191553Z 34014KT 00/03 A3029 RMK A01 T00000-32  RH  079%=      5-min Rain = 0
KHA2 191554Z 34014KT 00/M03 A3029 RMK A01 T00011033  RH  078%=      5-min Rain = 0
KHA2 191555Z 34014KT 00/M03 A3029 RMK A01 T00011034  RH  078%=      5-min Rain = 0
KHA2 191556Z 34014KT 00/M03 A3029 RMK A01 T00011034  RH  077%=      5-min Rain = 0
KHA2 191557Z 34012KT 00/M03 A3029 RMK A01 T00011034  RH  077%=      5-min Rain = 0
KHA2 191558Z 35014KT 00/M03 A3029 RMK A01 T00011034  RH  078%=      5-min Rain = 0
KHA2 191559Z 35014KT 00/M03 A3029 RMK A01 T00011034  RH  077%=      5-min Rain = 0
KHA2 191600Z 35012KT 00/M03 A3029 RMK A01 T00011033  RH  078%=      5-min Rain = 0
KHA2 191601Z 34014KT 00/M03 A3029 RMK A01 T00031030  RH  078%=      5-min Rain = 0
KHA2 191602Z 35014KT 00/M03 A3029 RMK A01 T00041031  RH  078%=      5-min Rain = 0
KHA2 191603Z 35012KT 00/M03 A3029 RMK A01 T00031032  RH  077%=      5-min Rain = 0
KHA2 191604Z 34013KT 00/M03 A3029 RMK A01 T00031031  RH  077%=      5-min Rain = 0
KHA2 191605Z 34013KT 00/M03 A3029 RMK A01 T00041031  RH  077%=      5-min Rain = 0
KHA2 191606Z 34014KT 00/M03 A3029 RMK A01 T00041032  RH  077%=      5-min Rain = 0
KHA2 191607Z 34013KT 00/M03 A303 RMK A01 T00041032  RH  076%=      5-min Rain = 0
KHA2 191608Z 34015KT 00/M03 A303 RMK A01 T00041032  RH  077%=      5-min Rain = 0
KHA2 191609Z 35014KT 00/M03 A303 RMK A01 T00041032  RH  077%=      5-min Rain = 0
KHA2 191610Z 35016KT 01/M03 A303 RMK A01 T00051031  RH  077%=      5-min Rain = 0
KHA2 191611Z 34017KT 01/M03 A303 RMK A01 T00051032  RH  076%=      5-min Rain = 0
KHA2 191612Z 34015KT 01/M03 A303 RMK A01 T00051033  RH  076%=      5-min Rain = 0
KHA2 191613Z 34017KT 01/M03 A303 RMK A01 T00051032  RH  076%=      5-min Rain = 0
KHA2 191614Z 34016KT 01/M03 A303 RMK A01 T00051032  RH  076%=      5-min Rain = 0
KHA2 191615Z 34016KT 01/M03 A303 RMK A01 T00051032  RH  076%=      5-min Rain = 0
KHA2 191616Z 34016KT 01/M03 A303 RMK A01 T00061029  RH  077%=      5-min Rain = 0
KHA2 191617Z 35015KT 01/M03 A303 RMK A01 T00081028  RH  077%=      5-min Rain = 0
KHA2 191618Z 35017KT 01/M03 A303 RMK A01 T00091027  RH  077%=      5-min Rain = 0
KHA2 191619Z 35015KT 01/M03 A303 RMK A01 T00091029  RH  076%=      5-min Rain = 0
KHA2 191620Z 34016KT 01/M03 A303 RMK A01 T00081028  RH  076%=      5-min Rain = 0
KHA2 191621Z 34015KT 01/M03 A303 RMK A01 T00091028  RH  076%=      5-min Rain = 0
KHA2 191622Z 35016KT 01/M03 A303 RMK A01 T00091028  RH  076%=      5-min Rain = 0
KHA2 191623Z 35017KT 01/M03 A303 RMK A01 T00101027  RH  076%=      5-min Rain = 0
KHA2 191624Z 35014KT 01/M03 A303 RMK A01 T00111027  RH  076%=      5-min Rain = 0
KHA2 191625Z 35018KT 01/M02 A303 RMK A01 T00121024  RH  077%=      5-min Rain = 0
KHA2 191626Z 35018KT 01/M03 A303 RMK A01 T00121027  RH  075%=      5-min Rain = 0
KHA2 191627Z 34018KT 01/M03 A3031 RMK A01 T00121028  RH  075%=      5-min Rain = 0
KHA2 191628Z 35019KT 01/M03 A3031 RMK A01 T00121028  RH  075%=      5-min Rain = 0
KHA2 191629Z 34019KT 01/M03 A3031 RMK A01 T00121028  RH  075%=      5-min Rain = 0
KHA2 191630Z 34020KT 01/M03 A303 RMK A01 T00131027  RH  074%=      5-min Rain = 0
KHA2 191631Z 35020KT 01/M03 A303 RMK A01 T00131028  RH  074%=      5-min Rain = 0
KHA2 191632Z 35017KT 01/M03 A303 RMK A01 T00131028  RH  074%=      5-min Rain = 0
KHA2 191633Z 35018KT 01/M03 A303 RMK A01 T00131029  RH  074%=      5-min Rain = 0
KHA2 191634Z 36018KT 01/M03 A303 RMK A01 T00131029  RH  074%=      5-min Rain = 0
KHA2 191635Z 35015KT 01/M03 A303 RMK A01 T00131027  RH  075%=      5-min Rain = 0
KHA2 191636Z 35018KT 02/M02 A303 RMK A01 T00161022  RH  076%=      5-min Rain = 0
KHA2 191637Z 35020KT 02/M03 A303 RMK A01 T00171025  RH  074%=      5-min Rain = 0
KHA2 191638Z 35018KT 02/M03 A3031 RMK A01 T00161028  RH  073%=      5-min Rain = 0
KHA2 191639Z 35019KT 02/M03 A3031 RMK A01 T00161026  RH  074%=      5-min Rain = 0
KHA2 191640Z 35019KT 02/M03 A3031 RMK A01 T00161026  RH  073%=      5-min Rain = 0
KHA2 191641Z 35016KT 02/M03 A3031 RMK A01 T00161026  RH  074%=      5-min Rain = 0
KHA2 191642Z 35018KT 02/M02 A3031 RMK A01 T00171024  RH  074%=      5-min Rain = 0
KHA2 191643Z 36019KT 02/M03 A3031 RMK A01 T00171026  RH  073%=      5-min Rain = 0
KHA2 191644Z 36020KT 02/M03 A3031 RMK A01 T00161028  RH  072%=      5-min Rain = 0
KHA2 191645Z 36019KT 02/M03 A3031 RMK A01 T00161026  RH  073%=      5-min Rain = 0
KHA2 191646Z 36018KT 02/M03 A3031 RMK A01 T00171025  RH  074%=      5-min Rain = 0
KHA2 191647Z 35018KT 02/M02 A303 RMK A01 T00181024  RH  073%=      5-min Rain = 0
KHA2 191648Z 35016KT 02/M03 A3031 RMK A01 T00181025  RH  073%=      5-min Rain = 0
KHA2 191649Z 35017KT 02/M02 A3031 RMK A01 T00201021  RH  074%=      5-min Rain = 0
KHA2 191650Z 35018KT 02/M02 A3031 RMK A01 T00211022  RH  073%=      5-min Rain = 0
KHA2 191651Z 36017KT 02/M03 A3031 RMK A01 T00201025  RH  072%=      5-min Rain = 0
KHA2 191652Z 36018KT 02/M02 A3031 RMK A01 T00201024  RH  073%=      5-min Rain = 0
KHA2 191653Z 35017KT 02/M02 A3031 RMK A01 T00201023  RH  073%=      5-min Rain = 0
KHA2 191654Z 35018KT 02/M02 A3031 RMK A01 T00211022  RH  073%=      5-min Rain = 0
KHA2 191655Z 35015KT 02/M02 A3031 RMK A01 T00221022  RH  073%=      5-min Rain = 0
KHA2 191656Z 36016KT 02/M02 A3031 RMK A01 T00221020  RH  074%=      5-min Rain = 0
KHA2 191657Z 35016KT 02/M02 A3031 RMK A01 T00241020  RH  073%=      5-min Rain = 0
KHA2 191658Z 34020KT 02/M02 A3031 RMK A01 T00241022  RH  072%=      5-min Rain = 0
KHA2 191659Z 34018KT 02/M03 A3031 RMK A01 T00231025  RH  071%=      5-min Rain = 0
KHA2 191700Z 34018KT 02/M03 A3031 RMK A01 T00221025  RH  071%=      5-min Rain = 0
KHA2 191701Z 34017KT 02/M02 A3031 RMK A01 T00221023  RH  072%=      5-min Rain = 0
KHA2 191702Z 35016KT 02/M02 A3031 RMK A01 T00231020  RH  073%=      5-min Rain = 0
KHA2 191703Z 34017KT 02/M02 A3031 RMK A01 T00241022  RH  071%=      5-min Rain = 0
KHA2 191704Z 35017KT 02/M02 A3031 RMK A01 T00231023  RH  071%=      5-min Rain = 0
KHA2 191705Z 35017KT 03/M02 A3031 RMK A01 T00251021  RH  072%=      5-min Rain = 0
KHA2 191706Z 36017KT 02/M02 A3031 RMK A01 T00241024  RH  070%=      5-min Rain = 0
KHA2 191707Z 35018KT 03/M02 A3031 RMK A01 T00251022  RH  071%=      5-min Rain = 0
KHA2 191708Z 34018KT 03/M02 A3031 RMK A01 T00251023  RH  071%=      5-min Rain = 0
KHA2 191709Z 35018KT 03/M02 A3031 RMK A01 T00251024  RH  070%=      5-min Rain = 0
KHA2 191710Z 35015KT 03/M03 A3031 RMK A01 T00251025  RH  070%=      5-min Rain = 0
KHA2 191711Z 36017KT 02/M02 A3031 RMK A01 T00241024  RH  071%=      5-min Rain = 0
KHA2 191712Z 35017KT 03/M02 A3031 RMK A01 T00251022  RH  071%=      5-min Rain = 0
KHA2 191713Z 34016KT 03/M02 A3031 RMK A01 T00261022  RH  071%=      5-min Rain = 0
KHA2 191714Z 35017KT 03/M02 A3031 RMK A01 T00271022  RH  070%=      5-min Rain = 0
KHA2 191715Z 35016KT 03/M02 A3031 RMK A01 T00271022  RH  070%=      5-min Rain = 0
KHA2 191716Z 34017KT 03/M02 A3031 RMK A01 T00271022  RH  070%=      5-min Rain = 0
KHA2 191717Z 35017KT 03/M02 A3031 RMK A01 T00271023  RH  069%=      5-min Rain = 0
KHA2 191718Z 35015KT 03/M02 A3032 RMK A01 T00271021  RH  070%=      5-min Rain = 0
KHA2 191719Z 35017KT 03/M02 A3032 RMK A01 T00291020  RH  070%=      5-min Rain = 0
KHA2 191720Z 35017KT 03/M02 A3032 RMK A01 T00291022  RH  069%=      5-min Rain = 0
KHA2 191721Z 35017KT 03/M02 A3032 RMK A01 T00281023  RH  069%=      5-min Rain = 0
KHA2 191722Z 35014KT 03/M02 A3032 RMK A01 T00291020  RH  070%=      5-min Rain = 0
KHA2 191723Z 35016KT 03/M02 A3032 RMK A01 T00311019  RH  070%=      5-min Rain = 0
KHA2 191724Z 35016KT 03/M02 A3032 RMK A01 T00321019  RH  069%=      5-min Rain = 0
KHA2 191725Z 35015KT 03/M02 A3032 RMK A01 T00311021  RH  069%=      5-min Rain = 0
KHA2 191726Z 35015KT 03/M02 A3032 RMK A01 T00311019  RH  070%=      5-min Rain = 0
KHA2 191727Z 35016KT 03/M02 A3032 RMK A01 T00311019  RH  069%=      5-min Rain = 0
KHA2 191728Z 35015KT 03/M02 A3032 RMK A01 T00311020  RH  069%=      5-min Rain = 0
KHA2 191729Z 34013KT 03/M02 A3032 RMK A01 T00321020  RH  069%=      5-min Rain = 0
KHA2 191730Z 35014KT 03/M02 A3032 RMK A01 T00311020  RH  069%=      5-min Rain = 0
KHA2 191731Z 36015KT 03/M02 A3032 RMK A01 T00321019  RH  070%=      5-min Rain = 0
KHA2 191732Z 34013KT 03/M02 A3032 RMK A01 T00341015  RH  070%=      5-min Rain = 0
KHA2 191733Z 34014KT 04/M01 A3032 RMK A01 T00381013  RH  069%=      5-min Rain = 0
KHA2 191734Z 35015KT 04/M02 A3032 RMK A01 T00371017  RH  068%=      5-min Rain = 0
KHA2 191735Z 34015KT 04/M02 A3032 RMK A01 T00371016  RH  068%=      5-min Rain = 0
KHA2 191736Z 35017KT 04/M02 A3032 RMK A01 T00371018  RH  068%=      5-min Rain = 0
KHA2 191737Z 34017KT 04/M02 A3032 RMK A01 T00361020  RH  067%=      5-min Rain = 0
KHA2 191738Z 34017KT 04/M02 A3032 RMK A01 T00351021  RH  067%=      5-min Rain = 0
KHA2 191739Z 34020KT 04/M02 A3032 RMK A01 T00351020  RH  067%=      5-min Rain = 0
KHA2 191740Z 33019KT 03/M02 A3032 RMK A01 T00341024  RH  066%=      5-min Rain = 0
KHA2 191741Z 33016KT 03/M03 A3032 RMK A01 T00321026  RH  066%=      5-min Rain = 0
KHA2 191742Z 34017KT 03/M02 A3032 RMK A01 T00341020  RH  068%=      5-min Rain = 0
KHA2 191743Z 34018KT 04/M02 A3032 RMK A01 T00351022  RH  066%=      5-min Rain = 0
KHA2 191744Z 33016G22KT 03/M02 A3032 RMK A01 T00341023  RH  066%=      5-min Rain = 0
KHA2 191745Z 33018KT 03/M02 A3032 RMK A01 T00341024  RH  066%=      5-min Rain = 0
KHA2 191746Z 34019KT 03/M02 A3032 RMK A01 T00331024  RH  066%=      5-min Rain = 0
KHA2 191747Z 33017KT 03/M03 A3032 RMK A01 T00321026  RH  066%=      5-min Rain = 0
KHA2 191748Z 33018KT 03/M03 A3032 RMK A01 T00321025  RH  066%=      5-min Rain = 0
KHA2 191749Z 34016KT 03/M02 A3032 RMK A01 T00321023  RH  067%=      5-min Rain = 0
KHA2 191750Z 34016KT 03/M02 A3032 RMK A01 T00331021  RH  068%=      5-min Rain = 0
KHA2 191751Z 34015KT 04/M02 A3032 RMK A01 T00361018  RH  068%=      5-min Rain = 0
KHA2 191752Z 35016KT 04/M02 A3032 RMK A01 T00381019  RH  066%=      5-min Rain = 0
KHA2 191753Z 34016G21KT 04/M02 A3032 RMK A01 T00381020  RH  066%=      5-min Rain = 0
KHA2 191754Z 35018KT 04/M02 A3032 RMK A01 T00381022  RH  065%=      5-min Rain = 0
KHA2 191755Z 34017KT 04/M03 A3032 RMK A01 T00351025  RH  065%=      5-min Rain = 0
KHA2 191756Z 34015KT 03/M02 A3032 RMK A01 T00331024  RH  066%=      5-min Rain = 0
KHA2 191757Z 34020KT 03/M02 A3032 RMK A01 T00341023  RH  067%=      5-min Rain = 0
KHA2 191758Z 34017KT 03/M03 A3032 RMK A01 T00331026  RH  065%=      5-min Rain = 0
KHA2 191759Z 35019KT 03/M03 A3032 RMK A01 T00331026  RH  065%=      5-min Rain = 0
KHA2 191800Z 34017KT 03/M03 A3032 RMK A01 T00321026  RH  066%=      5-min Rain = 0
KHA2 191801Z 34018KT 03/M02 A3032 RMK A01 T00331024  RH  066%=      5-min Rain = 0
KHA2 191802Z 34017KT 03/M02 A3032 RMK A01 T00331024  RH  066%=      5-min Rain = 0
KHA2 191803Z 33017G22KT 03/M02 A3032 RMK A01 T00341022  RH  067%=      5-min Rain = 0
KHA2 191804Z 33018KT 04/M02 A3032 RMK A01 T00351022  RH  066%=      5-min Rain = 0
KHA2 191805Z 34015KT 03/M02 A3032 RMK A01 T00331024  RH  066%=      5-min Rain = 0
KHA2 191806Z 34014KT 04/M02 A3032 RMK A01 T00351020  RH  067%=      5-min Rain = 0
KHA2 191807Z 35016KT 04/M02 A3032 RMK A01 T00371020  RH  066%=      5-min Rain = 0
KHA2 191808Z 35018KT 04/M02 A3032 RMK A01 T00381021  RH  065%=      5-min Rain = 0
KHA2 191809Z 35019KT 04/M02 A3032 RMK A01 T00371024  RH  065%=      5-min Rain = 0
KHA2 191810Z 35016KT 04/M03 A3032 RMK A01 T00351025  RH  065%=      5-min Rain = 0
KHA2 191811Z 34017KT 04/M02 A3032 RMK A01 T00361022  RH  066%=      5-min Rain = 0
KHA2 191812Z 34018G23KT 04/M02 A3032 RMK A01 T00361023  RH  065%=      5-min Rain = 0
KHA2 191813Z 34019KT 04/M02 A3032 RMK A01 T00361024  RH  065%=      5-min Rain = 0
KHA2 191814Z 34020KT 04/M03 A3032 RMK A01 T00361025  RH  065%=      5-min Rain = 0
KHA2 191815Z 34019KT 04/M03 A3032 RMK A01 T00351026  RH  064%=      5-min Rain = 0
KHA2 191816Z 36017KT 03/M03 A3032 RMK A01 T00331027  RH  065%=      5-min Rain = 0
KHA2 191817Z 35015KT 03/M03 A3031 RMK A01 T00341025  RH  065%=      5-min Rain = 0
KHA2 191818Z 34020KT 04/M02 A3031 RMK A01 T00361022  RH  066%=      5-min Rain = 0
KHA2 191819Z 34017KT 04/M03 A3031 RMK A01 T00351026  RH  064%=      5-min Rain = 0
KHA2 191820Z 34019KT 03/M02 A3031 RMK A01 T00341024  RH  066%=      5-min Rain = 0
KHA2 191821Z 35018KT 04/M02 A3031 RMK A01 T00351024  RH  065%=      5-min Rain = 0
KHA2 191822Z 35016KT 04/M02 A3031 RMK A01 T00351024  RH  065%=      5-min Rain = 0
KHA2 191823Z 34016KT 04/M03 A3031 RMK A01 T00351025  RH  065%=      5-min Rain = 0
KHA2 191824Z 35016KT 04/M02 A3031 RMK A01 T00371023  RH  065%=      5-min Rain = 0
KHA2 191825Z 36018KT 04/M02 A3031 RMK A01 T00371024  RH  064%=      5-min Rain = 0
KHA2 191826Z 34018KT 04/M03 A3031 RMK A01 T00361026  RH  064%=      5-min Rain = 0
KHA2 191827Z 35017KT 04/M03 A3031 RMK A01 T00361025  RH  064%=      5-min Rain = 0
KHA2 191828Z 36017KT 04/M03 A3031 RMK A01 T00361026  RH  064%=      5-min Rain = 0
KHA2 191829Z 35017KT 04/M03 A3031 RMK A01 T00361026  RH  064%=      5-min Rain = 0
KHA2 191830Z 36015KT 04/M03 A3031 RMK A01 T00361025  RH  064%=      5-min Rain = 0
KHA2 191831Z 35016KT 04/M02 A3031 RMK A01 T00381020  RH  066%=      5-min Rain = 0
KHA2 191832Z 34016G21KT 04/M02 A3031 RMK A01 T00391021  RH  065%=      5-min Rain = 0
KHA2 191833Z 34017KT 04/M02 A3031 RMK A01 T00391022  RH  064%=      5-min Rain = 0
KHA2 191834Z 35016KT 04/M02 A3031 RMK A01 T00391023  RH  064%=      5-min Rain = 0
KHA2 191835Z 36014KT 04/M03 A3031 RMK A01 T00361026  RH  064%=      5-min Rain = 0
KHA2 191836Z 34013KT 04/M02 A3031 RMK A01 T00361024  RH  065%=      5-min Rain = 0
KHA2 191837Z 34015KT 04/M02 A3031 RMK A01 T00371021  RH  065%=      5-min Rain = 0
KHA2 191838Z 33015KT 04/M02 A3031 RMK A01 T00391021  RH  065%=      5-min Rain = 0
KHA2 191839Z 33013KT 04/M02 A3031 RMK A01 T00401022  RH  064%=      5-min Rain = 0
KHA2 191840Z 35015KT 04/M02 A3031 RMK A01 T00421020  RH  064%=      5-min Rain = 0
KHA2 191841Z 33016KT 04/M02 A3031 RMK A01 T00421022  RH  063%=      5-min Rain = 0
KHA2 191842Z 33015KT 04/M03 A3031 RMK A01 T00391025  RH  063%=      5-min Rain = 0
KHA2 191843Z 33015KT 04/M02 A3031 RMK A01 T00381024  RH  064%=      5-min Rain = 0
KHA2 191844Z 34013KT 04/M02 A3031 RMK A01 T00381023  RH  064%=      5-min Rain = 0
KHA2 191845Z 33014KT 04/M02 A3031 RMK A01 T00381023  RH  065%=      5-min Rain = 0
KHA2 191846Z 34014G19KT 04/M02 A3031 RMK A01 T00391023  RH  064%=      5-min Rain = 0
KHA2 191847Z 34015KT 04/M02 A3031 RMK A01 T00401022  RH  064%=      5-min Rain = 0
KHA2 191848Z 34016KT 04/M02 A3031 RMK A01 T00421021  RH  063%=      5-min Rain = 0
KHA2 191849Z 34016KT 04/M02 A3031 RMK A01 T00421023  RH  063%=      5-min Rain = 0
KHA2 191850Z 34013KT 04/M03 A3031 RMK A01 T00401025  RH  063%=      5-min Rain = 0
KHA2 191851Z 36015KT 04/M02 A303 RMK A01 T00411020  RH  064%=      5-min Rain = 0
KHA2 191852Z 34013KT 04/M02 A303 RMK A01 T00441019  RH  064%=      5-min Rain = 0
KHA2 191853Z 35012KT 05/M02 A303 RMK A01 T00451018  RH  063%=      5-min Rain = 0
KHA2 191854Z 34013KT 05/M02 A303 RMK A01 T00461022  RH  062%=      5-min Rain = 0
KHA2 191855Z 33015KT 04/M03 A303 RMK A01 T00421025  RH  062%=      5-min Rain = 0
KHA2 191856Z 35013G19KT 04/M03 A303 RMK A01 T00401025  RH  063%=      5-min Rain = 0
KHA2 191857Z 35012KT 04/M02 A303 RMK A01 T00391023  RH  064%=      5-min Rain = 0
KHA2 191858Z 35012KT 04/M02 A303 RMK A01 T00411022  RH  063%=      5-min Rain = 0
KHA2 191859Z 33011KT 04/M02 A303 RMK A01 T00421021  RH  064%=      5-min Rain = 0
KHA2 191900Z 33014KT 04/M02 A303 RMK A01 T00431020  RH  063%=      5-min Rain = 0
KHA2 191901Z 33015KT 04/M02 A303 RMK A01 T00441021  RH  063%=      5-min Rain = 0
KHA2 191902Z 34013G22KT 04/M02 A303 RMK A01 T00441020  RH  063%=      5-min Rain = 0
KHA2 191903Z 34013KT 05/M02 A303 RMK A01 T00461021  RH  062%=      5-min Rain = 0
KHA2 191904Z 34013KT 05/M02 A303 RMK A01 T00451023  RH  061%=      5-min Rain = 0
KHA2 191905Z 34013KT 04/M02 A303 RMK A01 T00441022  RH  062%=      5-min Rain = 0
KHA2 191906Z 35014KT 05/M02 A303 RMK A01 T00451021  RH  063%=      5-min Rain = 0
KHA2 191907Z 33013KT 05/M02 A303 RMK A01 T00491016  RH  063%=      5-min Rain = 0
KHA2 191908Z 33011KT 05/M02 A303 RMK A01 T00491020  RH  061%=      5-min Rain = 0
KHA2 191909Z 34014KT 05/M02 A303 RMK A01 T00461023  RH  061%=      5-min Rain = 0
KHA2 191910Z 34015G20KT 05/M02 A303 RMK A01 T00461019  RH  063%=      5-min Rain = 0
KHA2 191911Z 34015G21KT 05/M02 A303 RMK A01 T00481020  RH  061%=      5-min Rain = 0
KHA2 191912Z 34014KT 05/M02 A303 RMK A01 T00481020  RH  062%=      5-min Rain = 0
KHA2 191913Z 34014KT 05/M02 A303 RMK A01 T00501019  RH  061%=      5-min Rain = 0
KHA2 191914Z 34012KT 05/M02 A303 RMK A01 T00481023  RH  060%=      5-min Rain = 0
KHA2 191915Z 34012KT 05/M02 A303 RMK A01 T00481019  RH  062%=      5-min Rain = 0
KHA2 191916Z 34015KT 05/M02 A303 RMK A01 T00501018  RH  062%=      5-min Rain = 0
KHA2 191917Z 34017KT 05/M02 A303 RMK A01 T00511021  RH  060%=      5-min Rain = 0
KHA2 191918Z 34015KT 05/M03 A303 RMK A01 T00471025  RH  059%=      5-min Rain = 0
KHA2 191919Z 34016KT 05/M02 A303 RMK A01 T00461024  RH  061%=      5-min Rain = 0
KHA2 191920Z 34015G20KT 05/M02 A303 RMK A01 T00471022  RH  061%=      5-min Rain = 0
KHA2 191921Z 34012KT 05/M02 A303 RMK A01 T00511019  RH  061%=      5-min Rain = 0
KHA2 191922Z 34014KT 05/M02 A303 RMK A01 T00511021  RH  060%=      5-min Rain = 0
KHA2 191923Z 33014KT 05/M02 A303 RMK A01 T00491023  RH  060%=      5-min Rain = 0
KHA2 191924Z 33015KT 05/M02 A303 RMK A01 T00471024  RH  060%=      5-min Rain = 0
KHA2 191925Z 34016KT 05/M02 A303 RMK A01 T00491022  RH  060%=      5-min Rain = 0
KHA2 191926Z 35016KT 05/M02 A3029 RMK A01 T00501023  RH  059%=      5-min Rain = 0
KHA2 191927Z 35016KT 05/M02 A3029 RMK A01 T00491024  RH  059%=      5-min Rain = 0
KHA2 191928Z 34017KT 05/M02 A3029 RMK A01 T00491021  RH  060%=      5-min Rain = 0
KHA2 191929Z 34016KT 05/M02 A3029 RMK A01 T00521021  RH  059%=      5-min Rain = 0
KHA2 191930Z 35014KT 05/M02 A3029 RMK A01 T00521022  RH  059%=      5-min Rain = 0
KHA2 191931Z 34015KT 05/M02 A3029 RMK A01 T00531022  RH  058%=      5-min Rain = 0
KHA2 191932Z 34015KT 05/M02 A3029 RMK A01 T00531021  RH  059%=      5-min Rain = 0
KHA2 191933Z 34016KT 05/M02 A3029 RMK A01 T00531020  RH  059%=      5-min Rain = 0
KHA2 191934Z 35016KT 05/M02 A3029 RMK A01 T00541024  RH  057%=      5-min Rain = 0
KHA2 191935Z 34014KT 05/M02 A3029 RMK A01 T00521024  RH  058%=      5-min Rain = 0
KHA2 191936Z 33015KT 05/M02 A3029 RMK A01 T00511023  RH  059%=      5-min Rain = 0
KHA2 191937Z 33015G20KT 05/M02 A3029 RMK A01 T00521023  RH  059%=      5-min Rain = 0
KHA2 191938Z 34019KT 05/M03 A3029 RMK A01 T00521025  RH  058%=      5-min Rain = 0
KHA2 191939Z 34016KT 05/M03 A3029 RMK A01 T00501026  RH  058%=      5-min Rain = 0
KHA2 191940Z 34016KT 05/M02 A3029 RMK A01 T00521024  RH  058%=      5-min Rain = 0
KHA2 191941Z 33013KT 05/M03 A3029 RMK A01 T00511025  RH  058%=      5-min Rain = 0
KHA2 191942Z 33016KT 05/M02 A3029 RMK A01 T00531020  RH  059%=      5-min Rain = 0
KHA2 191943Z 33017KT 05/M02 A3029 RMK A01 T00541022  RH  058%=      5-min Rain = 0
KHA2 191944Z 33014KT 06/M02 A3029 RMK A01 T00551022  RH  058%=      5-min Rain = 0
KHA2 191945Z 34015KT 06/M02 A3029 RMK A01 T00571019  RH  058%=      5-min Rain = 0
KHA2 191946Z 33014KT 06/M02 A3029 RMK A01 T00591020  RH  057%=      5-min Rain = 0
KHA2 191947Z 33014KT 06/M02 A3028 RMK A01 T00571023  RH  056%=      5-min Rain = 0
KHA2 191948Z 33014KT 06/M02 A3028 RMK A01 T00571023  RH  057%=      5-min Rain = 0
KHA2 191949Z 33016KT 06/M02 A3028 RMK A01 T00561024  RH  056%=      5-min Rain = 0
KHA2 191950Z 34015KT 06/M03 A3028 RMK A01 T00561025  RH  056%=      5-min Rain = 0
KHA2 191951Z 35016KT 06/M02 A3028 RMK A01 T00581023  RH  056%=      5-min Rain = 0
KHA2 191952Z 34016KT 06/M02 A3028 RMK A01 T00561024  RH  056%=      5-min Rain = 0
KHA2 191953Z 34014KT 06/M02 A3028 RMK A01 T00561023  RH  057%=      5-min Rain = 0
KHA2 191954Z 33018KT 06/M02 A3028 RMK A01 T00551023  RH  057%=      5-min Rain = 0
KHA2 191955Z 33017KT 06/M03 A3028 RMK A01 T00561026  RH  056%=      5-min Rain = 0
KHA2 191956Z 33016KT 05/M03 A3028 RMK A01 T00541027  RH  056%=      5-min Rain = 0
KHA2 191957Z 34015KT 05/M03 A3028 RMK A01 T00531028  RH  056%=      5-min Rain = 0
KHA2 191958Z 33018KT 05/M03 A3028 RMK A01 T00541026  RH  056%=      5-min Rain = 0
KHA2 191959Z 34017KT 06/M03 A3028 RMK A01 T00551027  RH  055%=      5-min Rain = 0
KHA2 192000Z 34015KT 05/M03 A3028 RMK A01 T00531028  RH  056%=      5-min Rain = 0
KHA2 192001Z 34015KT 05/M03 A3028 RMK A01 T00531027  RH  056%=      5-min Rain = 0
KHA2 192002Z 33014KT 06/M02 A3028 RMK A01 T00561024  RH  056%=      5-min Rain = 0
KHA2 192003Z 33014KT 06/M02 A3028 RMK A01 T00591023  RH  056%=      5-min Rain = 0
KHA2 192004Z 34013KT 06/M03 A3028 RMK A01 T00581026  RH  055%=      5-min Rain = 0
KHA2 192005Z 34014KT 06/M03 A3028 RMK A01 T00571025  RH  056%=      5-min Rain = 0
KHA2 192006Z 32014KT 06/M02 A3028 RMK A01 T00581022  RH  057%=      5-min Rain = 0
KHA2 192007Z 33012KT 06/M02 A3028 RMK A01 T00581021  RH  057%=      5-min Rain = 0
KHA2 192008Z 33015KT 06/M02 A3028 RMK A01 T00591022  RH  056%=      5-min Rain = 0
KHA2 192009Z 33016KT 06/M03 A3028 RMK A01 T00581025  RH  055%=      5-min Rain = 0
KHA2 192010Z 34014KT 06/M03 A3028 RMK A01 T00581025  RH  055%=      5-min Rain = 0
KHA2 192011Z 34016KT 06/M02 A3027 RMK A01 T00581023  RH  056%=      5-min Rain = 0
KHA2 192012Z 33015KT 06/M03 A3027 RMK A01 T00581025  RH  055%=      5-min Rain = 0
KHA2 192013Z 33016KT 06/M03 A3027 RMK A01 T00591025  RH  055%=      5-min Rain = 0
KHA2 192014Z 34015KT 06/M03 A3027 RMK A01 T00611025  RH  054%=      5-min Rain = 0
KHA2 192015Z 34015KT 06/M02 A3027 RMK A01 T00631024  RH  054%=      5-min Rain = 0
KHA2 192016Z 33013G18KT 06/M03 A3027 RMK A01 T00621026  RH  053%=      5-min Rain = 0
KHA2 192017Z 33017KT 06/M03 A3027 RMK A01 T00611026  RH  053%=      5-min Rain = 0
KHA2 192018Z 33016KT 06/M03 A3027 RMK A01 T00611028  RH  053%=      5-min Rain = 0
KHA2 192019Z 34018G23KT 06/M03 A3027 RMK A01 T00621025  RH  054%=      5-min Rain = 0
KHA2 192020Z 34016KT 06/M03 A3027 RMK A01 T00641025  RH  053%=      5-min Rain = 0
KHA2 192021Z 33014KT 06/M03 A3027 RMK A01 T00631029  RH  052%=      5-min Rain = 0
KHA2 192022Z 35017KT 06/M03 A3027 RMK A01 T00621029  RH  052%=      5-min Rain = 0
KHA2 192023Z 34016KT 06/M03 A3027 RMK A01 T00621029  RH  052%=      5-min Rain = 0
KHA2 192024Z 33013KT 06/M03 A3027 RMK A01 T00621029  RH  052%=      5-min Rain = 0
KHA2 192025Z 33014KT 06/M03 A3027 RMK A01 T00631027  RH  053%=      5-min Rain = 0
KHA2 192026Z 32016KT 06/M03 A3027 RMK A01 T00641028  RH  052%=      5-min Rain = 0
KHA2 192027Z 33014KT 06/M03 A3027 RMK A01 T00631029  RH  052%=      5-min Rain = 0
KHA2 192028Z 33017KT 07/M03 A3027 RMK A01 T00651028  RH  051%=      5-min Rain = 0
KHA2 192029Z 33017KT 07/M03 A3027 RMK A01 T00651031  RH  050%=      5-min Rain = 0
KHA2 192030Z 35017KT 07/M03 A3027 RMK A01 T00651032  RH  050%=      5-min Rain = 0
KHA2 192031Z 35015KT 06/M03 A3027 RMK A01 T00641033  RH  050%=      5-min Rain = 0
KHA2 192032Z 34017KT 06/M03 A3027 RMK A01 T00641031  RH  051%=      5-min Rain = 0
KHA2 192033Z 34015KT 07/M03 A3027 RMK A01 T00661029  RH  051%=      5-min Rain = 0
KHA2 192034Z 34016KT 07/M03 A3027 RMK A01 T00681028  RH  050%=      5-min Rain = 0
KHA2 192035Z 34016G21KT 07/M03 A3027 RMK A01 T00681028  RH  051%=      5-min Rain = 0
KHA2 192036Z 34014KT 07/M03 A3027 RMK A01 T00651030  RH  050%=      5-min Rain = 0
KHA2 192037Z 33013G18KT 06/M03 A3027 RMK A01 T00641028  RH  052%=      5-min Rain = 0
KHA2 192038Z 33015KT 07/M03 A3027 RMK A01 T00661026  RH  052%=      5-min Rain = 0
KHA2 192039Z 32013KT 07/M03 A3027 RMK A01 T00671025  RH  052%=      5-min Rain = 0
KHA2 192040Z 33015G20KT 07/M02 A3027 RMK A01 T00691024  RH  052%=      5-min Rain = 0
KHA2 192041Z 35014KT 07/M03 A3027 RMK A01 T00691026  RH  051%=      5-min Rain = 0
KHA2 192042Z 35015KT 07/M03 A3027 RMK A01 T00701025  RH  051%=      5-min Rain = 0
KHA2 192043Z 34016KT 07/M03 A3027 RMK A01 T00701026  RH  051%=      5-min Rain = 0
KHA2 192044Z 33014KT 07/M03 A3027 RMK A01 T00691025  RH  051%=      5-min Rain = 0
KHA2 192045Z 34013KT 07/M03 A3027 RMK A01 T00671026  RH  051%=      5-min Rain = 0
KHA2 192046Z 33010KT 07/M03 A3027 RMK A01 T00671025  RH  052%=      5-min Rain = 0
KHA2 192047Z 33011KT 07/M02 A3027 RMK A01 T00691023  RH  052%=      5-min Rain = 0
KHA2 192048Z 35014KT 07/M03 A3027 RMK A01 T00711026  RH  050%=      5-min Rain = 0
KHA2 192049Z 35014KT 07/M03 A3026 RMK A01 T00721029  RH  049%=      5-min Rain = 0
KHA2 192050Z 34014KT 07/M03 A3026 RMK A01 T00701028  RH  050%=      5-min Rain = 0
KHA2 192051Z 33013KT 07/M03 A3026 RMK A01 T00711025  RH  050%=      5-min Rain = 0
KHA2 192052Z 32012KT 07/M02 A3026 RMK A01 T00721024  RH  050%=      5-min Rain = 0
KHA2 192053Z 32014G20KT 07/M02 A3026 RMK A01 T00741024  RH  050%=      5-min Rain = 0
KHA2 192054Z 33014KT 08/M03 A3026 RMK A01 T00751026  RH  049%=      5-min Rain = 0
KHA2 192055Z 33018KT 07/M03 A3026 RMK A01 T00731030  RH  048%=      5-min Rain = 0
KHA2 192056Z 34016KT 07/M03 A3026 RMK A01 T00731030  RH  048%=      5-min Rain = 0
KHA2 192057Z 33012KT 07/M03 A3026 RMK A01 T00721029  RH  049%=      5-min Rain = 0
KHA2 192058Z 35012KT 07/M03 A3026 RMK A01 T00741027  RH  049%=      5-min Rain = 0
KHA2 192059Z 34013KT 07/M03 A3026 RMK A01 T00741028  RH  048%=      5-min Rain = 0
KHA2 192100Z 34014KT 07/M03 A3026 RMK A01 T00741027  RH  049%=      5-min Rain = 0
KHA2 192101Z 34011KT 07/M03 A3026 RMK A01 T00731028  RH  049%=      5-min Rain = 0
KHA2 192102Z 32015KT 07/M03 A3026 RMK A01 T00741026  RH  049%=      5-min Rain = 0
KHA2 192103Z 32013KT 07/M03 A3026 RMK A01 T00731029  RH  048%=      5-min Rain = 0
KHA2 192104Z 33011KT 07/M03 A3026 RMK A01 T00701029  RH  049%=      5-min Rain = 0
KHA2 192105Z 32013KT 07/M03 A3026 RMK A01 T00701028  RH  049%=      5-min Rain = 0
KHA2 192106Z 33012KT 07/M03 A3026 RMK A01 T00711027  RH  050%=      5-min Rain = 0
KHA2 192107Z 33014KT 07/M03 A3026 RMK A01 T00721027  RH  050%=      5-min Rain = 0
KHA2 192108Z 33012KT 07/M03 A3026 RMK A01 T00721029  RH  049%=      5-min Rain = 0
KHA2 192109Z 32011KT 07/M03 A3026 RMK A01 T00711029  RH  049%=      5-min Rain = 0
KHA2 192110Z 33011KT 07/M03 A3026 RMK A01 T00711028  RH  050%=      5-min Rain = 0
KHA2 192111Z 33016KT 07/M02 A3026 RMK A01 T00731024  RH  050%=      5-min Rain = 0
KHA2 192112Z 34013KT 08/M03 A3026 RMK A01 T00751027  RH  049%=      5-min Rain = 0
KHA2 192113Z 34010KT 07/M03 A3026 RMK A01 T00741027  RH  049%=      5-min Rain = 0
KHA2 192114Z 34011G17KT 08/M03 A3026 RMK A01 T00751026  RH  049%=      5-min Rain = 0
KHA2 192115Z 33014KT 08/M03 A3026 RMK A01 T00751026  RH  049%=      5-min Rain = 0
KHA2 192116Z 33010KT 07/M03 A3026 RMK A01 T00731026  RH  049%=      5-min Rain = 0
KHA2 192117Z 32010KT 07/M02 A3026 RMK A01 T00731024  RH  050%=      5-min Rain = 0
KHA2 192118Z 34010G15KT 08/M02 A3026 RMK A01 T00751023  RH  050%=      5-min Rain = 0
KHA2 192119Z 33014KT 08/M03 A3026 RMK A01 T00781025  RH  048%=      5-min Rain = 0
KHA2 192120Z 34014KT 08/M03 A3026 RMK A01 T00771029  RH  047%=      5-min Rain = 0
KHA2 192121Z 34013KT 08/M03 A3026 RMK A01 T00761031  RH  046%=      5-min Rain = 0
KHA2 192122Z 34011KT 08/M03 A3026 RMK A01 T00751032  RH  047%=      5-min Rain = 0
KHA2 192123Z 32010KT 08/M03 A3026 RMK A01 T00751030  RH  047%=      5-min Rain = 0
KHA2 192124Z 34015G21KT 08/M03 A3026 RMK A01 T00771029  RH  047%=      5-min Rain = 0
KHA2 192125Z 34014KT 08/M03 A3026 RMK A01 T00781031  RH  046%=      5-min Rain = 0
KHA2 192126Z 33014KT 08/M03 A3026 RMK A01 T00781031  RH  046%=      5-min Rain = 0
KHA2 192127Z 33014KT 08/M03 A3026 RMK A01 T00751033  RH  046%=      5-min Rain = 0
KHA2 192128Z 34010KT 07/M03 A3026 RMK A01 T00731032  RH  047%=      5-min Rain = 0
KHA2 192129Z 33009KT 08/M03 A3026 RMK A01 T00751029  RH  048%=      5-min Rain = 0
KHA2 192130Z 34011G16KT 08/M03 A3026 RMK A01 T00761029  RH  047%=      5-min Rain = 0
KHA2 192131Z 34014KT 08/M03 A3026 RMK A01 T00761032  RH  046%=      5-min Rain = 0
KHA2 192132Z 34011KT 08/M03 A3026 RMK A01 T00781031  RH  046%=      5-min Rain = 0
KHA2 192133Z 34013KT 08/M03 A3026 RMK A01 T00781032  RH  046%=      5-min Rain = 0
KHA2 192134Z 34012KT 08/M03 A3026 RMK A01 T00781030  RH  046%=      5-min Rain = 0
KHA2 192135Z 34010KT 08/M03 A3026 RMK A01 T00791030  RH  046%=      5-min Rain = 0
KHA2 192136Z 33009KT 08/M03 A3026 RMK A01 T00781030  RH  046%=      5-min Rain = 0
KHA2 192137Z 34013KT 08/M03 A3026 RMK A01 T00791031  RH  046%=      5-min Rain = 0
KHA2 192138Z 34010KT 08/M03 A3026 RMK A01 T00771032  RH  046%=      5-min Rain = 0
KHA2 192139Z 33015KT 08/M03 A3026 RMK A01 T00781031  RH  046%=      5-min Rain = 0
KHA2 192140Z 34014KT 08/M04 A3026 RMK A01 T00791035  RH  045%=      5-min Rain = 0
KHA2 192141Z 34012KT 08/M04 A3026 RMK A01 T00771037  RH  044%=      5-min Rain = 0
KHA2 192142Z 35012KT 08/M04 A3026 RMK A01 T00761035  RH  045%=      5-min Rain = 0
KHA2 192143Z 35010KT 08/M04 A3026 RMK A01 T00771035  RH  045%=      5-min Rain = 0
KHA2 192144Z 34012KT 08/M03 A3026 RMK A01 T00761034  RH  045%=      5-min Rain = 0
KHA2 192145Z 34014KT 08/M04 A3026 RMK A01 T00771035  RH  045%=      5-min Rain = 0
KHA2 192146Z 34014KT 08/M04 A3026 RMK A01 T00771036  RH  045%=      5-min Rain = 0
KHA2 192147Z 34013KT 08/M04 A3026 RMK A01 T00761036  RH  045%=      5-min Rain = 0
KHA2 192148Z 34012KT 08/M04 A3026 RMK A01 T00761035  RH  045%=      5-min Rain = 0
KHA2 192149Z 33011KT 08/M04 A3026 RMK A01 T00761037  RH  045%=      5-min Rain = 0
KHA2 192150Z 33012KT 08/M04 A3026 RMK A01 T00761036  RH  045%=      5-min Rain = 0
KHA2 192151Z 32012KT 08/M04 A3026 RMK A01 T00761037  RH  045%=      5-min Rain = 0
KHA2 192152Z 33012KT 08/M04 A3026 RMK A01 T00761037  RH  045%=      5-min Rain = 0
KHA2 192153Z 35012KT 08/M04 A3026 RMK A01 T00761037  RH  044%=      5-min Rain = 0
KHA2 192154Z 35014KT 08/M04 A3026 RMK A01 T00761037  RH  045%=      5-min Rain = 0
KHA2 192155Z 34013KT 08/M04 A3026 RMK A01 T00771036  RH  045%=      5-min Rain = 0
KHA2 192156Z 35012KT 08/M03 A3026 RMK A01 T00791034  RH  045%=      5-min Rain = 0
KHA2 192157Z 35014KT 08/M04 A3026 RMK A01 T00791035  RH  044%=      5-min Rain = 0
KHA2 192158Z 35012KT 08/M04 A3027 RMK A01 T00791035  RH  044%=      5-min Rain = 0
KHA2 192159Z 35012KT 08/M03 A3027 RMK A01 T00791034  RH  045%=      5-min Rain = 0
KHA2 192200Z 35012KT 08/M04 A3027 RMK A01 T00791036  RH  044%=      5-min Rain = 0
KHA2 192201Z 35011KT 08/M04 A3027 RMK A01 T00781036  RH  044%=      5-min Rain = 0
KHA2 192202Z 35011KT 08/M04 A3027 RMK A01 T00771037  RH  044%=      5-min Rain = 0
KHA2 192203Z 34010KT 08/M04 A3027 RMK A01 T00771036  RH  044%=      5-min Rain = 0
KHA2 192204Z 34009KT 08/M04 A3027 RMK A01 T00771036  RH  045%=      5-min Rain = 0
KHA2 192205Z 35010KT 08/M04 A3027 RMK A01 T00771035  RH  045%=      5-min Rain = 0
KHA2 192206Z 00010KT 08/M03 A3027 RMK A01 T00791033  RH  045%=      5-min Rain = 0
KHA2 192207Z 00012KT 08/M04 A3026 RMK A01 T00791036  RH  044%=      5-min Rain = 0
KHA2 192208Z 00010KT 08/M04 A3026 RMK A01 T00781037  RH  044%=      5-min Rain = 0
KHA2 192209Z 00007KT 08/M04 A3026 RMK A01 T00771039  RH  044%=      5-min Rain = 0
KHA2 192210Z 00007KT 08/M04 A3027 RMK A01 T00751039  RH  044%=      5-min Rain = 0
KHA2 192211Z 36011KT 08/M04 A3027 RMK A01 T00761035  RH  045%=      5-min Rain = 0
KHA2 192212Z 01011KT 08/M04 A3026 RMK A01 T00781035  RH  045%=      5-min Rain = 0
KHA2 192213Z 36010KT 08/M04 A3026 RMK A01 T00781036  RH  045%=      5-min Rain = 0
KHA2 192214Z 36009KT 08/M04 A3026 RMK A01 T00791035  RH  045%=      5-min Rain = 0
KHA2 192215Z 34009KT 08/M04 A3026 RMK A01 T00791035  RH  044%=      5-min Rain = 0
KHA2 192216Z 35009KT 08/M04 A3026 RMK A01 T00781035  RH  044%=      5-min Rain = 0
KHA2 192217Z 34010KT 08/M04 A3026 RMK A01 T00781035  RH  045%=      5-min Rain = 0
KHA2 192218Z 35010KT 08/M04 A3026 RMK A01 T00781035  RH  045%=      5-min Rain = 0
KHA2 192219Z 35009KT 08/M03 A3026 RMK A01 T00781033  RH  045%=      5-min Rain = 0
KHA2 192220Z 35010KT 08/M03 A3026 RMK A01 T00791033  RH  045%=      5-min Rain = 0
KHA2 192221Z 35007KT 08/M04 A3027 RMK A01 T00791035  RH  045%=      5-min Rain = 0
KHA2 192222Z 35009KT 08/M04 A3027 RMK A01 T00781035  RH  045%=      5-min Rain = 0
KHA2 192223Z 00008KT 08/M04 A3027 RMK A01 T00781035  RH  044%=      5-min Rain = 0
KHA2 192224Z 35008KT 08/M03 A3027 RMK A01 T00781034  RH  045%=      5-min Rain = 0
KHA2 192225Z 34009KT 08/M03 A3026 RMK A01 T00791033  RH  045%=      5-min Rain = 0
KHA2 192226Z 32008KT 08/M03 A3026 RMK A01 T00791032  RH  045%=      5-min Rain = 0
KHA2 192227Z 32008KT 08/M03 A3027 RMK A01 T00791033  RH  045%=      5-min Rain = 0
KHA2 192228Z 33007KT 08/M03 A3027 RMK A01 T00781033  RH  045%=      5-min Rain = 0
KHA2 192229Z 33006KT 08/M03 A3026 RMK A01 T00781034  RH  045%=      5-min Rain = 0
KHA2 192230Z 36007KT 08/M03 A3026 RMK A01 T00781033  RH  045%=      5-min Rain = 0
KHA2 192231Z 00009KT 08/M03 A3026 RMK A01 T00791032  RH  045%=      5-min Rain = 0
KHA2 192232Z 00010KT 08/M03 A3026 RMK A01 T00791034  RH  045%=      5-min Rain = 0
KHA2 192233Z 00008KT 08/M04 A3026 RMK A01 T00781035  RH  045%=      5-min Rain = 0
KHA2 192234Z 01007KT 08/M03 A3026 RMK A01 T00781034  RH  045%=      5-min Rain = 0
KHA2 192235Z 35007KT 08/M04 A3026 RMK A01 T00771036  RH  045%=      5-min Rain = 0
KHA2 192236Z 34006KT 08/M04 A3026 RMK A01 T00771035  RH  045%=      5-min Rain = 0
KHA2 192237Z 33006KT 08/M04 A3026 RMK A01 T00761036  RH  045%=      5-min Rain = 0
KHA2 192238Z 33006KT 08/M03 A3026 RMK A01 T00761034  RH  046%=      5-min Rain = 0
KHA2 192239Z 33005KT 08/M04 A3026 RMK A01 T00761035  RH  045%=      5-min Rain = 0
KHA2 192240Z 34004KT 08/M04 A3026 RMK A01 T00761036  RH  045%=      5-min Rain = 0
KHA2 192241Z 35005KT 08/M03 A3026 RMK A01 T00761033  RH  046%=      5-min Rain = 0
KHA2 192242Z 36007KT 08/M03 A3026 RMK A01 T00771032  RH  046%=      5-min Rain = 0
KHA2 192243Z 35008KT 08/M03 A3026 RMK A01 T00781034  RH  045%=      5-min Rain = 0
KHA2 192244Z 00009KT 08/M04 A3026 RMK A01 T00771035  RH  045%=      5-min Rain = 0
KHA2 192245Z 00010KT 08/M04 A3026 RMK A01 T00761035  RH  045%=      5-min Rain = 0
KHA2 192246Z 36009KT 08/M04 A3026 RMK A01 T00761035  RH  045%=      5-min Rain = 0
KHA2 192247Z 00007KT 08/M04 A3026 RMK A01 T00751035  RH  045%=      5-min Rain = 0
KHA2 192248Z 02007KT 08/M03 A3026 RMK A01 T00751034  RH  046%=      5-min Rain = 0
KHA2 192249Z 01007KT 08/M03 A3026 RMK A01 T00761034  RH  046%=      5-min Rain = 0
KHA2 192250Z 01007KT 08/M03 A3026 RMK A01 T00761034  RH  046%=      5-min Rain = 0
KHA2 192251Z 00009KT 08/M03 A3026 RMK A01 T00761034  RH  046%=      5-min Rain = 0
KHA2 192252Z 01006KT 08/M03 A3026 RMK A01 T00761034  RH  046%=      5-min Rain = 0
KHA2 192253Z 01006KT 08/M03 A3026 RMK A01 T00761034  RH  045%=      5-min Rain = 0
KHA2 192254Z 01006KT 08/M03 A3027 RMK A01 T00761034  RH  045%=      5-min Rain = 0
KHA2 192255Z 00007KT 08/M03 A3027 RMK A01 T00761033  RH  046%=      5-min Rain = 0
KHA2 192256Z 00007KT 08/M03 A3027 RMK A01 T00761034  RH  046%=      5-min Rain = 0
KHA2 192257Z 01007KT 08/M03 A3027 RMK A01 T00761033  RH  046%=      5-min Rain = 0
KHA2 192258Z 00007KT 08/M03 A3027 RMK A01 T00761033  RH  046%=      5-min Rain = 0
KHA2 192259Z 36007KT 08/M03 A3027 RMK A01 T00761033  RH  046%=      5-min Rain = 0
KHA2 192300Z 36005KT 08/M03 A3027 RMK A01 T00761034  RH  046%=      5-min Rain = 0
KHA2 192301Z 01006KT 08/M03 A3027 RMK A01 T00751033  RH  046%=      5-min Rain = 0
KHA2 192302Z 01007KT 08/M03 A3027 RMK A01 T00751033  RH  046%=      5-min Rain = 0
KHA2 192303Z 01007KT 08/M03 A3027 RMK A01 T00751034  RH  046%=      5-min Rain = 0
KHA2 192304Z 01005KT 08/M03 A3027 RMK A01 T00751034  RH  046%=      5-min Rain = 0
KHA2 192305Z 01005KT 08/M04 A3027 RMK A01 T00751035  RH  046%=      5-min Rain = 0
KHA2 192306Z 01005KT 07/M04 A3027 RMK A01 T00741035  RH  046%=      5-min Rain = 0
KHA2 192307Z 00004KT 07/M03 A3027 RMK A01 T00741034  RH  046%=      5-min Rain = 0
KHA2 192308Z 33004KT 07/M03 A3027 RMK A01 T00741033  RH  047%=      5-min Rain = 0
KHA2 192309Z 35007KT 08/M03 A3027 RMK A01 T00751031  RH  047%=      5-min Rain = 0
KHA2 192310Z 34006KT 08/M03 A3027 RMK A01 T00751032  RH  047%=      5-min Rain = 0
KHA2 192311Z 34006KT 08/M03 A3027 RMK A01 T00751032  RH  047%=      5-min Rain = 0
KHA2 192312Z 35007KT 07/M03 A3027 RMK A01 T00741032  RH  047%=      5-min Rain = 0
KHA2 192313Z 00007KT 07/M03 A3027 RMK A01 T00741031  RH  047%=      5-min Rain = 0
KHA2 192314Z 00007KT 07/M03 A3027 RMK A01 T00741032  RH  047%=      5-min Rain = 0
KHA2 192315Z 00006KT 07/M03 A3027 RMK A01 T00731032  RH  047%=      5-min Rain = 0
KHA2 192316Z 00007KT 07/M03 A3027 RMK A01 T00731031  RH  048%=      5-min Rain = 0
KHA2 192317Z 35007KT 07/M03 A3027 RMK A01 T00721031  RH  048%=      5-min Rain = 0
KHA2 192318Z 36006KT 07/M03 A3027 RMK A01 T00721031  RH  048%=      5-min Rain = 0
KHA2 192319Z 00006KT 07/M03 A3027 RMK A01 T00721032  RH  047%=      5-min Rain = 0
KHA2 192320Z 00007KT 07/M03 A3027 RMK A01 T00721032  RH  048%=      5-min Rain = 0
KHA2 192321Z 00007KT 07/M03 A3027 RMK A01 T00711032  RH  048%=      5-min Rain = 0
KHA2 192322Z 00007KT 07/M03 A3027 RMK A01 T00701032  RH  048%=      5-min Rain = 0
KHA2 192323Z 01007KT 07/M03 A3027 RMK A01 T00701031  RH  049%=      5-min Rain = 0
KHA2 192324Z 01006KT 07/M03 A3027 RMK A01 T00691031  RH  049%=      5-min Rain = 0
KHA2 192325Z 01007KT 07/M03 A3027 RMK A01 T00691031  RH  049%=      5-min Rain = 0
KHA2 192326Z 01006KT 07/M03 A3027 RMK A01 T00691032  RH  049%=      5-min Rain = 0
KHA2 192327Z 01006KT 07/M03 A3027 RMK A01 T00681032  RH  049%=      5-min Rain = 0
KHA2 192328Z 01006KT 07/M03 A3027 RMK A01 T00681031  RH  049%=      5-min Rain = 0
KHA2 192329Z 01005KT 07/M03 A3027 RMK A01 T00681031  RH  049%=      5-min Rain = 0
KHA2 192330Z 01005KT 07/M03 A3027 RMK A01 T00671030  RH  050%=      5-min Rain = 0
KHA2 192331Z 01005KT 07/M03 A3027 RMK A01 T00661030  RH  050%=      5-min Rain = 0
KHA2 192332Z 01006KT 07/M03 A3027 RMK A01 T00661030  RH  050%=      5-min Rain = 0
KHA2 192333Z 01006KT 07/M03 A3027 RMK A01 T00651031  RH  050%=      5-min Rain = 0
KHA2 192334Z 01006KT 07/M03 A3027 RMK A01 T00651031  RH  050%=      5-min Rain = 0
KHA2 192335Z 00006KT 06/M03 A3027 RMK A01 T00631032  RH  050%=      5-min Rain = 0
KHA2 192336Z 01005KT 06/M03 A3027 RMK A01 T00631033  RH  050%=      5-min Rain = 0
KHA2 192337Z 02005KT 06/M03 A3027 RMK A01 T00631033  RH  050%=      5-min Rain = 0
KHA2 192338Z 02004KT 06/M03 A3027 RMK A01 T00631034  RH  050%=      5-min Rain = 0
KHA2 192339Z 02004KT 06/M03 A3027 RMK A01 T00631033  RH  050%=      5-min Rain = 0
KHA2 192340Z 02004KT 06/M03 A3027 RMK A01 T00621034  RH  050%=      5-min Rain = 0
KHA2 192341Z 02004KT 06/M03 A3026 RMK A01 T00621032  RH  051%=      5-min Rain = 0
KHA2 192342Z 02005KT 06/M03 A3026 RMK A01 T00611032  RH  051%=      5-min Rain = 0
KHA2 192343Z 02005KT 06/M03 A3027 RMK A01 T00601033  RH  051%=      5-min Rain = 0
KHA2 192344Z 02005KT 06/M03 A3027 RMK A01 T00591034  RH  051%=      5-min Rain = 0
KHA2 192345Z 02005KT 06/M03 A3027 RMK A01 T00571033  RH  052%=      5-min Rain = 0
KHA2 192346Z 02005KT 06/M03 A3027 RMK A01 T00561034  RH  052%=      5-min Rain = 0
KHA2 192347Z 02005KT 06/M03 A3027 RMK A01 T00561034  RH  052%=      5-min Rain = 0
KHA2 192348Z 02005KT 06/M03 A3027 RMK A01 T00551034  RH  053%=      5-min Rain = 0
KHA2 192349Z 02004KT 06/M03 A3027 RMK A01 T00551034  RH  053%=      5-min Rain = 0
KHA2 192350Z 02004KT 06/M03 A3027 RMK A01 T00551034  RH  053%=      5-min Rain = 0
KHA2 192351Z 02005KT 05/M03 A3027 RMK A01 T00541033  RH  053%=      5-min Rain = 0
KHA2 192352Z 02005KT 05/M03 A3027 RMK A01 T00531033  RH  054%=      5-min Rain = 0
KHA2 192353Z 02005KT 05/M03 A3027 RMK A01 T00531034  RH  054%=      5-min Rain = 0
KHA2 192354Z 02005KT 05/M03 A3027 RMK A01 T00521034  RH  054%=      5-min Rain = 0
KHA2 192355Z 02005KT 05/M03 A3027 RMK A01 T00511034  RH  054%=      5-min Rain = 0
KHA2 192356Z 02006KT 05/M03 A3027 RMK A01 T00511034  RH  054%=      5-min Rain = 0
KHA2 192357Z 02006KT 05/M04 A3027 RMK A01 T00491035  RH  055%=      5-min Rain = 0
KHA2 192358Z 03006KT 05/M04 A3027 RMK A01 T00481035  RH  055%=      5-min Rain = 0
KHA2 192359Z 02006KT 05/M04 A3027 RMK A01 T00461035  RH  055%=      5-min Rain = 0
KHA2 200000Z 02006KT 05/M04 A3027 RMK A01 T00451035  RH  056%=      5-min Rain = 0
KHA2 200001Z 03006KT 04/M04 A3027 RMK A01 T00431035  RH  057%=      5-min Rain = 0
KHA2 200002Z 03005KT 04/M04 A3027 RMK A01 T00421036  RH  057%=      5-min Rain = 0
KHA2 200003Z 03006KT 04/M04 A3027 RMK A01 T00421036  RH  057%=      5-min Rain = 0
KHA2 200004Z 03006KT 04/M04 A3027 RMK A01 T00411036  RH  057%=      5-min Rain = 0
KHA2 200005Z 03006KT 04/M04 A3027 RMK A01 T00401037  RH  058%=      5-min Rain = 0
KHA2 200006Z 03006KT 04/M04 A3027 RMK A01 T00381037  RH  058%=      5-min Rain = 0
KHA2 200007Z 03006KT 04/M04 A3027 RMK A01 T00371037  RH  059%=      5-min Rain = 0
KHA2 200008Z 03006KT 04/M04 A3027 RMK A01 T00361036  RH  059%=      5-min Rain = 0
KHA2 200009Z 04005KT 04/M04 A3027 RMK A01 T00351036  RH  060%=      5-min Rain = 0
KHA2 200010Z 04005KT 03/M04 A3027 RMK A01 T00341036  RH  060%=      5-min Rain = 0
KHA2 200011Z 04006KT 03/M04 A3027 RMK A01 T00341035  RH  061%=      5-min Rain = 0
KHA2 200012Z 04005KT 03/M03 A3027 RMK A01 T00341033  RH  061%=      5-min Rain = 0
KHA2 200013Z 04005KT 03/M03 A3027 RMK A01 T00331034  RH  061%=      5-min Rain = 0
KHA2 200014Z 04005KT 03/M04 A3027 RMK A01 T00321035  RH  061%=      5-min Rain = 0
KHA2 200015Z 04006KT 03/M04 A3027 RMK A01 T00311035  RH  062%=      5-min Rain = 0
KHA2 200016Z 04006KT 03/M04 A3027 RMK A01 T00311035  RH  062%=      5-min Rain = 0
KHA2 200017Z 04006KT 03/M04 A3027 RMK A01 T00321035  RH  062%=      5-min Rain = 0
KHA2 200018Z 04006KT 03/M04 A3027 RMK A01 T00321035  RH  061%=      5-min Rain = 0
KHA2 200019Z 04007KT 03/M04 A3027 RMK A01 T00331035  RH  061%=      5-min Rain = 0
KHA2 200020Z 04007KT 03/M04 A3027 RMK A01 T00331035  RH  061%=      5-min Rain = 0
KHA2 200021Z 04007KT 03/M04 A3026 RMK A01 T00321035  RH  061%=      5-min Rain = 0
KHA2 200022Z 04008KT 03/M04 A3026 RMK A01 T00311035  RH  062%=      5-min Rain = 0
KHA2 200023Z 04008KT 03/M04 A3026 RMK A01 T00301035  RH  062%=      5-min Rain = 0
KHA2 200024Z 04008KT 03/M04 A3026 RMK A01 T00281035  RH  063%=      5-min Rain = 0
KHA2 200025Z 04008KT 03/M04 A3026 RMK A01 T00271036  RH  063%=      5-min Rain = 0
KHA2 200026Z 04008KT 03/M04 A3026 RMK A01 T00251038  RH  063%=      5-min Rain = 0
KHA2 200027Z 04008KT 02/M04 A3026 RMK A01 T00241039  RH  063%=      5-min Rain = 0
KHA2 200028Z 05008KT 02/M04 A3026 RMK A01 T00231040  RH  063%=      5-min Rain = 0
KHA2 200029Z 05008KT 02/M04 A3026 RMK A01 T00221042  RH  063%=      5-min Rain = 0
KHA2 200030Z 05007KT 02/M04 A3026 RMK A01 T00201043  RH  063%=      5-min Rain = 0
KHA2 200031Z 05008KT 02/M04 A3026 RMK A01 T00191044  RH  063%=      5-min Rain = 0
KHA2 200032Z 05008KT 02/M04 A3026 RMK A01 T00181044  RH  063%=      5-min Rain = 0
KHA2 200033Z 05008KT 02/M04 A3026 RMK A01 T00171044  RH  064%=      5-min Rain = 0
KHA2 200034Z 05008KT 02/M05 A3026 RMK A01 T00161045  RH  064%=      5-min Rain = 0
KHA2 200035Z 05008KT 01/M05 A3026 RMK A01 T00141046  RH  064%=      5-min Rain = 0
KHA2 200036Z 06008KT 01/M05 A3026 RMK A01 T00131047  RH  064%=      5-min Rain = 0
KHA2 200037Z 06007KT 01/M05 A3026 RMK A01 T00121048  RH  064%=      5-min Rain = 0
KHA2 200038Z 06007KT 01/M05 A3026 RMK A01 T00111049  RH  065%=      5-min Rain = 0
KHA2 200039Z 06007KT 01/M05 A3026 RMK A01 T00101049  RH  065%=      5-min Rain = 0
KHA2 200040Z 06007KT 01/M05 A3026 RMK A01 T00091049  RH  065%=      5-min Rain = 0
KHA2 200041Z 06007KT 01/M05 A3027 RMK A01 T00091049  RH  066%=      5-min Rain = 0
KHA2 200042Z 06006KT 01/M05 A3027 RMK A01 T00091048  RH  066%=      5-min Rain = 0
KHA2 200043Z 06006KT 01/M05 A3027 RMK A01 T00091047  RH  066%=      5-min Rain = 0
KHA2 200044Z 06005KT 01/M05 A3027 RMK A01 T00101046  RH  066%=      5-min Rain = 0
KHA2 200045Z 06006KT 01/M05 A3027 RMK A01 T00101046  RH  066%=      5-min Rain = 0
KHA2 200046Z 05006KT 01/M05 A3027 RMK A01 T00101047  RH  066%=      5-min Rain = 0
KHA2 200047Z 05007KT 01/M05 A3027 RMK A01 T00101047  RH  066%=      5-min Rain = 0
KHA2 200048Z 05007KT 01/M05 A3026 RMK A01 T00111045  RH  066%=      5-min Rain = 0
KHA2 200049Z 05007KT 01/M05 A3026 RMK A01 T00121046  RH  065%=      5-min Rain = 0
KHA2 200050Z 05007KT 01/M05 A3026 RMK A01 T00131045  RH  065%=      5-min Rain = 0
KHA2 200051Z 05006KT 01/M05 A3026 RMK A01 T00131046  RH  065%=      5-min Rain = 0
KHA2 200052Z 05006KT 01/M05 A3026 RMK A01 T00131046  RH  065%=      5-min Rain = 0
KHA2 200053Z 05005KT 01/M05 A3026 RMK A01 T00121046  RH  065%=      5-min Rain = 0
KHA2 200054Z 05005KT 01/M05 A3026 RMK A01 T00121046  RH  065%=      5-min Rain = 0
KHA2 200055Z 05005KT 01/M05 A3026 RMK A01 T00121046  RH  065%=      5-min Rain = 0
KHA2 200056Z 05004KT 01/M05 A3026 RMK A01 T00121046  RH  065%=      5-min Rain = 0
KHA2 200057Z 05004KT 01/M05 A3026 RMK A01 T00121047  RH  065%=      5-min Rain = 0
KHA2 200058Z 06004KT 01/M05 A3026 RMK A01 T00121048  RH  064%=      5-min Rain = 0
KHA2 200059Z 06003KT 01/M05 A3026 RMK A01 T00121049  RH  064%=      5-min Rain = 0
KHA2 200100Z 06003KT 01/M05 A3026 RMK A01 T00111050  RH  064%=      5-min Rain = 0
KHA2 200101Z 06004KT 01/M05 A3026 RMK A01 T00111050  RH  064%=      5-min Rain = 0
KHA2 200102Z 06004KT 01/M05 A3026 RMK A01 T00111049  RH  064%=      5-min Rain = 0
KHA2 200103Z 06004KT 01/M05 A3026 RMK A01 T00111049  RH  064%=      5-min Rain = 0
KHA2 200104Z 06005KT 01/M05 A3026 RMK A01 T00111047  RH  065%=      5-min Rain = 0
KHA2 200105Z 06004KT 01/M04 A3026 RMK A01 T00111044  RH  067%=      5-min Rain = 0
KHA2 200106Z 06005KT 01/M04 A3026 RMK A01 T00121043  RH  067%=      5-min Rain = 0
KHA2 200107Z 06005KT 01/M05 A3026 RMK A01 T00131045  RH  065%=      5-min Rain = 0
KHA2 200108Z 06005KT 01/M04 A3026 RMK A01 T00141044  RH  065%=      5-min Rain = 0
KHA2 200109Z 07006KT 02/M04 A3026 RMK A01 T00151043  RH  065%=      5-min Rain = 0
KHA2 200110Z 07006KT 02/M04 A3026 RMK A01 T00161041  RH  066%=      5-min Rain = 0
KHA2 200111Z 07006KT 02/M04 A3025 RMK A01 T00171040  RH  066%=      5-min Rain = 0
KHA2 200112Z 07006KT 02/M04 A3025 RMK A01 T00181040  RH  065%=      5-min Rain = 0
KHA2 200113Z 07006KT 02/M04 A3025 RMK A01 T00181042  RH  064%=      5-min Rain = 0
KHA2 200114Z 07006KT 02/M04 A3025 RMK A01 T00181043  RH  064%=      5-min Rain = 0
KHA2 200115Z 07006KT 02/M04 A3025 RMK A01 T00181042  RH  064%=      5-min Rain = 0
KHA2 200116Z 07006KT 02/M04 A3025 RMK A01 T00181042  RH  064%=      5-min Rain = 0
KHA2 200117Z 08006KT 02/M04 A3025 RMK A01 T00171043  RH  064%=      5-min Rain = 0
KHA2 200118Z 08006KT 02/M04 A3025 RMK A01 T00171043  RH  064%=      5-min Rain = 0
KHA2 200119Z 08006KT 02/M04 A3025 RMK A01 T00171041  RH  065%=      5-min Rain = 0
KHA2 200120Z 08006KT 02/M04 A3025 RMK A01 T00171040  RH  066%=      5-min Rain = 0
KHA2 200121Z 08006KT 02/M04 A3025 RMK A01 T00171041  RH  065%=      5-min Rain = 0
KHA2 200122Z 08006KT 02/M04 A3025 RMK A01 T00171042  RH  065%=      5-min Rain = 0
KHA2 200123Z 08007KT 02/M04 A3025 RMK A01 T00171043  RH  064%=      5-min Rain = 0
KHA2 200124Z 08007KT 02/M04 A3024 RMK A01 T00161044  RH  064%=      5-min Rain = 0
KHA2 200125Z 08007KT 02/M04 A3024 RMK A01 T00161044  RH  064%=      5-min Rain = 0
KHA2 200126Z 07007KT 02/M04 A3024 RMK A01 T00161043  RH  064%=      5-min Rain = 0
KHA2 200127Z 08007KT 02/M04 A3024 RMK A01 T00171043  RH  065%=      5-min Rain = 0
KHA2 200128Z 08006KT 02/M04 A3024 RMK A01 T00171042  RH  065%=      5-min Rain = 0
KHA2 200129Z 09006KT 02/M04 A3024 RMK A01 T00161041  RH  066%=      5-min Rain = 0
KHA2 200130Z 10006KT 02/M04 A3024 RMK A01 T00161040  RH  066%=      5-min Rain = 0
KHA2 200131Z 11005KT 02/M04 A3024 RMK A01 T00161042  RH  065%=      5-min Rain = 0
KHA2 200132Z 12005KT 01/M05 A3024 RMK A01 T00121052  RH  062%=      5-min Rain = 0
KHA2 200133Z 12005KT 01/M06 A3024 RMK A01 T00051058  RH  062%=      5-min Rain = 0
KHA2 200134Z 11005KT 00/M06 A3024 RMK A01 T00021058  RH  064%=      5-min Rain = 0
KHA2 200135Z 10005KT 00/M06 A3024 RMK A01 T00011057  RH  065%=      5-min Rain = 0
KHA2 200136Z 09005KT 00/06 A3024 RMK A01 T00000-56  RH  066%=      5-min Rain = 0
KHA2 200137Z 09006KT 00/06 A3024 RMK A01 T00-00-55  RH  067%=      5-min Rain = 0
KHA2 200138Z 08006KT 00/05 A3024 RMK A01 T00-00-54  RH  067%=      5-min Rain = 0
KHA2 200139Z 08006KT 00/M05 A3024 RMK A01 T00011050  RH  068%=      5-min Rain = 0
KHA2 200140Z 08007KT 00/M05 A3024 RMK A01 T00041047  RH  069%=      5-min Rain = 0
KHA2 200141Z 08007KT 01/M05 A3024 RMK A01 T00051045  RH  069%=      5-min Rain = 0
KHA2 200142Z 09006KT 01/M04 A3024 RMK A01 T00061044  RH  069%=      5-min Rain = 0
KHA2 200143Z 09006KT 01/M04 A3024 RMK A01 T00081043  RH  069%=      5-min Rain = 0
KHA2 200144Z 10006KT 01/M04 A3024 RMK A01 T00091043  RH  068%=      5-min Rain = 0
KHA2 200145Z 10005KT 01/M05 A3024 RMK A01 T00091045  RH  067%=      5-min Rain = 0
KHA2 200146Z 11004KT 01/M05 A3024 RMK A01 T00081051  RH  065%=      5-min Rain = 0
KHA2 200147Z 10004KT 00/M06 A3024 RMK A01 T00041056  RH  064%=      5-min Rain = 0
KHA2 200148Z 09005KT 00/M06 A3024 RMK A01 T00021057  RH  064%=      5-min Rain = 0
KHA2 200149Z 09004KT 00/M06 A3024 RMK A01 T00011057  RH  065%=      5-min Rain = 0
KHA2 200150Z 08004KT 00/06 A3025 RMK A01 T00000-57  RH  066%=      5-min Rain = 0
KHA2 200151Z 08005KT 00/06 A3025 RMK A01 T00-00-56  RH  066%=      5-min Rain = 0
KHA2 200152Z 08005KT M00/M05 A3025 RMK A01 T10011053  RH  068%=      5-min Rain = 0
KHA2 200153Z 08005KT M00/M05 A3025 RMK A01 T10011049  RH  070%=      5-min Rain = 0
KHA2 200154Z 09005KT M00/M05 A3025 RMK A01 T10011048  RH  071%=      5-min Rain = 0
KHA2 200155Z 09005KT M00/M05 A3025 RMK A01 T10011046  RH  072%=      5-min Rain = 0
KHA2 200156Z 09005KT 00/05 A3025 RMK A01 T00-00-45  RH  072%=      5-min Rain = 0
KHA2 200157Z 10005KT 00/M04 A3025 RMK A01 T00011044  RH  072%=      5-min Rain = 0
KHA2 200158Z 10004KT 00/M05 A3025 RMK A01 T00011045  RH  071%=      5-min Rain = 0
KHA2 200159Z 10004KT 00/05 A3025 RMK A01 T00-00-50  RH  069%=      5-min Rain = 0
KHA2 200200Z 10004KT M00/M05 A3025 RMK A01 T10021053  RH  068%=      5-min Rain = 0
KHA2 200201Z 09004KT M00/M05 A3025 RMK A01 T10021054  RH  068%=      5-min Rain = 0
KHA2 200202Z 08004KT M00/M05 A3025 RMK A01 T10031054  RH  068%=      5-min Rain = 0
KHA2 200203Z 08004KT M00/M05 A3025 RMK A01 T10041051  RH  070%=      5-min Rain = 0
KHA2 200204Z 08004KT M00/M05 A3025 RMK A01 T10041049  RH  072%=      5-min Rain = 0
KHA2 200205Z 08004KT M00/M05 A3025 RMK A01 T10041048  RH  072%=      5-min Rain = 0
KHA2 200206Z 08005KT M00/M05 A3025 RMK A01 T10031047  RH  072%=      5-min Rain = 0
KHA2 200207Z 08005KT M00/M05 A3025 RMK A01 T10021046  RH  072%=      5-min Rain = 0
KHA2 200208Z 08005KT M00/M05 A3025 RMK A01 T10021046  RH  072%=      5-min Rain = 0
KHA2 200209Z 08005KT M00/M05 A3025 RMK A01 T10011047  RH  071%=      5-min Rain = 0
KHA2 200210Z 08005KT M00/M05 A3025 RMK A01 T10011049  RH  070%=      5-min Rain = 0
KHA2 200211Z 08005KT M00/M05 A3026 RMK A01 T10011050  RH  070%=      5-min Rain = 0
KHA2 200212Z 09005KT 00/05 A3026 RMK A01 T00-00-50  RH  069%=      5-min Rain = 0
KHA2 200213Z 09005KT 00/05 A3026 RMK A01 T00-00-49  RH  069%=      5-min Rain = 0
KHA2 200214Z 09004KT 00/M05 A3026 RMK A01 T00011048  RH  070%=      5-min Rain = 0
KHA2 200215Z 09004KT 00/M05 A3026 RMK A01 T00011048  RH  070%=      5-min Rain = 0
KHA2 200216Z 09003KT 00/M05 A3026 RMK A01 T00021046  RH  070%=      5-min Rain = 0
KHA2 200217Z 09003KT 00/M05 A3027 RMK A01 T00021047  RH  070%=      5-min Rain = 0
KHA2 200218Z 10003KT 00/M05 A3027 RMK A01 T00021047  RH  070%=      5-min Rain = 0
KHA2 200219Z 09003KT 00/05 A3027 RMK A01 T00000-49  RH  069%=      5-min Rain = 0
KHA2 200220Z 09003KT 00/05 A3027 RMK A01 T00-00-50  RH  069%=      5-min Rain = 0
KHA2 200221Z 08003KT M00/M05 A3027 RMK A01 T10011050  RH  070%=      5-min Rain = 0
KHA2 200222Z 08003KT M00/M05 A3027 RMK A01 T10021049  RH  070%=      5-min Rain = 0
KHA2 200223Z 08004KT M00/M05 A3027 RMK A01 T10031050  RH  070%=      5-min Rain = 0
KHA2 200224Z 08004KT M00/M05 A3027 RMK A01 T10031051  RH  070%=      5-min Rain = 0
KHA2 200225Z 08004KT M00/M05 A3027 RMK A01 T10041050  RH  071%=      5-min Rain = 0
KHA2 200226Z 08004KT M00/M05 A3027 RMK A01 T10041050  RH  071%=      5-min Rain = 0
KHA2 200227Z 08005KT M01/M05 A3027 RMK A01 T10051051  RH  071%=      5-min Rain = 0
KHA2 200228Z 08004KT M00/M05 A3026 RMK A01 T10041052  RH  070%=      5-min Rain = 0
KHA2 200229Z 08004KT M00/M05 A3027 RMK A01 T10041052  RH  070%=      5-min Rain = 0
KHA2 200230Z 08004KT M00/M05 A3027 RMK A01 T10041054  RH  069%=      5-min Rain = 0
KHA2 200231Z 09004KT M00/M05 A3027 RMK A01 T10041053  RH  069%=      5-min Rain = 0
KHA2 200232Z 09004KT M00/M05 A3027 RMK A01 T10041053  RH  069%=      5-min Rain = 0
KHA2 200233Z 09003KT M00/M05 A3026 RMK A01 T10041052  RH  070%=      5-min Rain = 0
KHA2 200234Z 10003KT M00/M05 A3026 RMK A01 T10041052  RH  070%=      5-min Rain = 0
KHA2 200235Z 09003KT M00/M05 A3026 RMK A01 T10041053  RH  070%=      5-min Rain = 0
KHA2 200236Z 09003KT M01/M05 A3026 RMK A01 T10051054  RH  069%=      5-min Rain = 0
KHA2 200237Z 09003KT M01/M05 A3026 RMK A01 T10051054  RH  070%=      5-min Rain = 0
KHA2 200238Z 08003KT M01/M05 A3026 RMK A01 T10051052  RH  071%=      5-min Rain = 0
KHA2 200239Z 08003KT M01/M05 A3026 RMK A01 T10051052  RH  070%=      5-min Rain = 0
KHA2 200240Z 08003KT M01/M05 A3026 RMK A01 T10051053  RH  070%=      5-min Rain = 0
KHA2 200241Z 08003KT M00/M05 A3026 RMK A01 T10041053  RH  069%=      5-min Rain = 0
KHA2 200242Z 09003KT M00/M05 A3026 RMK A01 T10041054  RH  069%=      5-min Rain = 0
KHA2 200243Z 09003KT M00/M05 A3026 RMK A01 T10031054  RH  069%=      5-min Rain = 0
KHA2 200244Z 10003KT M00/M05 A3026 RMK A01 T10021053  RH  068%=      5-min Rain = 0
KHA2 200245Z 10003KT M00/M05 A3026 RMK A01 T10021053  RH  068%=      5-min Rain = 0
KHA2 200246Z 10003KT M00/M05 A3027 RMK A01 T10021053  RH  068%=      5-min Rain = 0
KHA2 200247Z 10003KT M00/M05 A3027 RMK A01 T10021052  RH  069%=      5-min Rain = 0
KHA2 200248Z 12002KT M00/M05 A3027 RMK A01 T10021051  RH  070%=      5-min Rain = 0
KHA2 200249Z 12003KT M00/M05 A3027 RMK A01 T10011050  RH  070%=      5-min Rain = 0
KHA2 200250Z 13003KT M00/M05 A3027 RMK A01 T10011051  RH  069%=      5-min Rain = 0
KHA2 200251Z 12002KT M00/M05 A3027 RMK A01 T10011051  RH  069%=      5-min Rain = 0
KHA2 200252Z 12003KT 00/05 A3027 RMK A01 T00-00-51  RH  069%=      5-min Rain = 0
KHA2 200253Z 12003KT 00/05 A3026 RMK A01 T00-00-52  RH  068%=      5-min Rain = 0
KHA2 200254Z 12004KT 00/05 A3026 RMK A01 T00000-52  RH  068%=      5-min Rain = 0
KHA2 200255Z 11003KT 00/05 A3026 RMK A01 T00000-52  RH  068%=      5-min Rain = 0
KHA2 200256Z 11003KT 00/05 A3026 RMK A01 T00000-53  RH  067%=      5-min Rain = 0
KHA2 200257Z 12003KT 00/05 A3026 RMK A01 T00-00-53  RH  067%=      5-min Rain = 0
KHA2 200258Z 11003KT 00/05 A3026 RMK A01 T00-00-53  RH  067%=      5-min Rain = 0
KHA2 200259Z 11003KT 00/05 A3026 RMK A01 T00000-53  RH  067%=      5-min Rain = 0
KHA2 200300Z 11003KT 00/05 A3026 RMK A01 T00000-53  RH  067%=      5-min Rain = 0
KHA2 200301Z 11004KT 00/05 A3026 RMK A01 T00000-53  RH  067%=      5-min Rain = 0
KHA2 200302Z 12004KT 00/M05 A3026 RMK A01 T00011053  RH  067%=      5-min Rain = 0
KHA2 200303Z 12005KT 00/M05 A3026 RMK A01 T00011053  RH  067%=      5-min Rain = 0
KHA2 200304Z 12005KT 00/M05 A3025 RMK A01 T00011053  RH  067%=      5-min Rain = 0
KHA2 200305Z 12005KT 00/M05 A3025 RMK A01 T00021053  RH  067%=      5-min Rain = 0
KHA2 200306Z 13006KT 00/M05 A3025 RMK A01 T00021053  RH  066%=      5-min Rain = 0
KHA2 200307Z 13006KT 00/M05 A3025 RMK A01 T00011054  RH  066%=      5-min Rain = 0
KHA2 200308Z 14006KT M00/M06 A3025 RMK A01 T10011056  RH  066%=      5-min Rain = 0
KHA2 200309Z 14006KT M00/M06 A3025 RMK A01 T10041058  RH  067%=      5-min Rain = 0
KHA2 200310Z 14005KT M01/M06 A3025 RMK A01 T10071060  RH  067%=      5-min Rain = 0
KHA2 200311Z 14005KT M01/M06 A3026 RMK A01 T10111062  RH  068%=      5-min Rain = 0
KHA2 200312Z 14005KT M01/M06 A3026 RMK A01 T10141063  RH  069%=      5-min Rain = 0
KHA2 200313Z 14005KT M02/M06 A3026 RMK A01 T10151061  RH  071%=      5-min Rain = 0
KHA2 200314Z 14005KT M02/M06 A3026 RMK A01 T10151059  RH  072%=      5-min Rain = 0
KHA2 200315Z 14005KT M02/M06 A3026 RMK A01 T10151059  RH  072%=      5-min Rain = 0
KHA2 200316Z 14004KT M02/M06 A3026 RMK A01 T10161059  RH  072%=      5-min Rain = 0
KHA2 200317Z 14003KT M02/M06 A3026 RMK A01 T10171059  RH  073%=      5-min Rain = 0
KHA2 200318Z 15004KT M02/M06 A3026 RMK A01 T10171059  RH  073%=      5-min Rain = 0
KHA2 200319Z 15004KT M02/M06 A3026 RMK A01 T10181059  RH  073%=      5-min Rain = 0
KHA2 200320Z 15004KT M02/M06 A3026 RMK A01 T10171058  RH  073%=      5-min Rain = 0
KHA2 200321Z 15004KT M02/M06 A3026 RMK A01 T10171059  RH  073%=      5-min Rain = 0
KHA2 200322Z 14004KT M02/M06 A3026 RMK A01 T10171060  RH  073%=      5-min Rain = 0
KHA2 200323Z 15005KT M02/M06 A3026 RMK A01 T10181061  RH  073%=      5-min Rain = 0
KHA2 200324Z 15005KT M02/M06 A3026 RMK A01 T10191061  RH  073%=      5-min Rain = 0
KHA2 200325Z 16005KT M02/M06 A3026 RMK A01 T10191061  RH  073%=      5-min Rain = 0
KHA2 200326Z 16005KT M02/M06 A3026 RMK A01 T10201062  RH  073%=      5-min Rain = 0
KHA2 200327Z 16005KT M02/M06 A3026 RMK A01 T10211062  RH  073%=      5-min Rain = 0
KHA2 200328Z 15005KT M02/M06 A3025 RMK A01 T10221062  RH  074%=      5-min Rain = 0
KHA2 200329Z 15005KT M02/M06 A3025 RMK A01 T10221062  RH  074%=      5-min Rain = 0
KHA2 200330Z 16004KT M02/M06 A3025 RMK A01 T10231062  RH  075%=      5-min Rain = 0
KHA2 200331Z 15005KT M02/M06 A3025 RMK A01 T10231061  RH  075%=      5-min Rain = 0
KHA2 200332Z 15004KT M02/M06 A3025 RMK A01 T10231061  RH  075%=      5-min Rain = 0
KHA2 200333Z 15004KT M02/M06 A3025 RMK A01 T10221059  RH  075%=      5-min Rain = 0
KHA2 200334Z 15005KT M02/M06 A3025 RMK A01 T10211059  RH  075%=      5-min Rain = 0
KHA2 200335Z 16005KT M02/M06 A3025 RMK A01 T10211059  RH  075%=      5-min Rain = 0
KHA2 200336Z 16005KT M02/M06 A3025 RMK A01 T10211060  RH  075%=      5-min Rain = 0
KHA2 200337Z 16005KT M02/M06 A3025 RMK A01 T10211060  RH  075%=      5-min Rain = 0
KHA2 200338Z 16005KT M02/M06 A3025 RMK A01 T10211059  RH  075%=      5-min Rain = 0
KHA2 200339Z 16005KT M02/M06 A3025 RMK A01 T10201059  RH  075%=      5-min Rain = 0
KHA2 200340Z 17005KT M02/M06 A3026 RMK A01 T10211060  RH  074%=      5-min Rain = 0
KHA2 200341Z 17004KT M02/M06 A3026 RMK A01 T10221062  RH  074%=      5-min Rain = 0
KHA2 200342Z 17004KT M02/M06 A3026 RMK A01 T10231061  RH  075%=      5-min Rain = 0
KHA2 200343Z 17004KT M02/M06 A3026 RMK A01 T10221060  RH  075%=      5-min Rain = 0
KHA2 200344Z 17004KT M02/M06 A3026 RMK A01 T10221059  RH  075%=      5-min Rain = 0
KHA2 200345Z 17004KT M02/M06 A3026 RMK A01 T10211059  RH  075%=      5-min Rain = 0
KHA2 200346Z 16004KT M02/M06 A3026 RMK A01 T10211060  RH  074%=      5-min Rain = 0
KHA2 200347Z 16004KT M02/M06 A3026 RMK A01 T10221061  RH  075%=      5-min Rain = 0
KHA2 200348Z 16005KT M02/M06 A3025 RMK A01 T10221060  RH  075%=      5-min Rain = 0
KHA2 200349Z 16005KT M02/M06 A3025 RMK A01 T10211058  RH  076%=      5-min Rain = 0
KHA2 200350Z 16005KT M02/M06 A3025 RMK A01 T10201058  RH  075%=      5-min Rain = 0
KHA2 200351Z 15005KT M02/M06 A3025 RMK A01 T10201059  RH  075%=      5-min Rain = 0
KHA2 200352Z 16005KT M02/M06 A3025 RMK A01 T10191059  RH  074%=      5-min Rain = 0
KHA2 200353Z 16005KT M02/M06 A3025 RMK A01 T10201060  RH  074%=      5-min Rain = 0
KHA2 200354Z 17006KT M02/M06 A3025 RMK A01 T10211061  RH  074%=      5-min Rain = 0
KHA2 200355Z 17006KT M02/M06 A3025 RMK A01 T10231063  RH  074%=      5-min Rain = 0
KHA2 200356Z 17007KT M03/M06 A3025 RMK A01 T10251064  RH  075%=      5-min Rain = 0
KHA2 200357Z 18007KT M03/M07 A3025 RMK A01 T10291067  RH  075%=      5-min Rain = 0
KHA2 200358Z 17006KT M03/M07 A3025 RMK A01 T10321068  RH  076%=      5-min Rain = 0
KHA2 200359Z 17006KT M03/M07 A3025 RMK A01 T10331067  RH  078%=      5-min Rain = 0
KHA2 200400Z 17006KT M03/M06 A3025 RMK A01 T10331064  RH  079%=      5-min Rain = 0
KHA2 200401Z 17005KT M03/M06 A3025 RMK A01 T10321062  RH  080%=      5-min Rain = 0
KHA2 200402Z 17005KT M03/M06 A3025 RMK A01 T10301059  RH  080%=      5-min Rain = 0
KHA2 200403Z 17005KT M03/M06 A3025 RMK A01 T10281058  RH  080%=      5-min Rain = 0
KHA2 200404Z 17005KT M03/M06 A3025 RMK A01 T10261058  RH  079%=      5-min Rain = 0
KHA2 200405Z 17005KT M03/M06 A3025 RMK A01 T10251057  RH  078%=      5-min Rain = 0
KHA2 200406Z 17005KT M02/M06 A3025 RMK A01 T10231056  RH  078%=      5-min Rain = 0
KHA2 200407Z 18005KT M02/M06 A3025 RMK A01 T10211056  RH  077%=      5-min Rain = 0
KHA2 200408Z 17005KT M02/M06 A3025 RMK A01 T10201056  RH  077%=      5-min Rain = 0
KHA2 200409Z 17005KT M02/M06 A3025 RMK A01 T10191056  RH  076%=      5-min Rain = 0
KHA2 200410Z 18005KT M02/M06 A3025 RMK A01 T10201058  RH  075%=      5-min Rain = 0
KHA2 200411Z 18005KT M02/M06 A3025 RMK A01 T10211059  RH  075%=      5-min Rain = 0
KHA2 200412Z 18005KT M02/M06 A3025 RMK A01 T10221060  RH  075%=      5-min Rain = 0
KHA2 200413Z 18005KT M02/M06 A3025 RMK A01 T10231060  RH  076%=      5-min Rain = 0
KHA2 200414Z 19006KT M02/M06 A3025 RMK A01 T10231059  RH  076%=      5-min Rain = 0
KHA2 200415Z 19006KT M02/M06 A3025 RMK A01 T10241061  RH  076%=      5-min Rain = 0
KHA2 200416Z 18006KT M03/M06 A3025 RMK A01 T10251062  RH  076%=      5-min Rain = 0
KHA2 200417Z 18006KT M03/M06 A3025 RMK A01 T10261063  RH  076%=      5-min Rain = 0
KHA2 200418Z 18005KT M03/M06 A3025 RMK A01 T10271063  RH  076%=      5-min Rain = 0
KHA2 200419Z 18005KT M03/M06 A3025 RMK A01 T10281063  RH  077%=      5-min Rain = 0
KHA2 200420Z 18006KT M03/M06 A3025 RMK A01 T10281062  RH  077%=      5-min Rain = 0
KHA2 200421Z 18006KT M03/M06 A3025 RMK A01 T10271062  RH  077%=      5-min Rain = 0
KHA2 200422Z 18006KT M03/M06 A3025 RMK A01 T10291063  RH  077%=      5-min Rain = 0
KHA2 200423Z 17006KT M03/M06 A3025 RMK A01 T10301064  RH  077%=      5-min Rain = 0
KHA2 200424Z 18006KT M03/M06 A3025 RMK A01 T10301064  RH  078%=      5-min Rain = 0
KHA2 200425Z 18006KT M03/M06 A3025 RMK A01 T10311064  RH  078%=      5-min Rain = 0
KHA2 200426Z 18006KT M03/M07 A3025 RMK A01 T10321065  RH  078%=      5-min Rain = 0
KHA2 200427Z 17006KT M03/M07 A3025 RMK A01 T10321065  RH  078%=      5-min Rain = 0
KHA2 200428Z 18006KT M03/M07 A3025 RMK A01 T10321065  RH  078%=      5-min Rain = 0
KHA2 200429Z 18006KT M03/M06 A3025 RMK A01 T10321064  RH  078%=      5-min Rain = 0
KHA2 200430Z 18006KT M03/M06 A3025 RMK A01 T10321064  RH  078%=      5-min Rain = 0
KHA2 200431Z 18006KT M03/M06 A3025 RMK A01 T10311063  RH  078%=      5-min Rain = 0
KHA2 200432Z 18006KT M03/M06 A3025 RMK A01 T10301063  RH  078%=      5-min Rain = 0
KHA2 200433Z 18005KT M03/M06 A3025 RMK A01 T10301063  RH  078%=      5-min Rain = 0
KHA2 200434Z 18006KT M03/M06 A3025 RMK A01 T10291062  RH  078%=      5-min Rain = 0
KHA2 200435Z 18007KT M03/M06 A3025 RMK A01 T10291062  RH  077%=      5-min Rain = 0
KHA2 200436Z 18007KT M03/M06 A3025 RMK A01 T10291063  RH  077%=      5-min Rain = 0
KHA2 200437Z 18007KT M03/M06 A3025 RMK A01 T10291062  RH  078%=      5-min Rain = 0
KHA2 200438Z 18006KT M03/M06 A3025 RMK A01 T10291062  RH  078%=      5-min Rain = 0
KHA2 200439Z 18006KT M03/M06 A3025 RMK A01 T10291062  RH  078%=      5-min Rain = 0
KHA2 200440Z 19007KT M03/M06 A3025 RMK A01 T10291063  RH  077%=      5-min Rain = 0
KHA2 200441Z 19007KT M03/M06 A3025 RMK A01 T10291063  RH  078%=      5-min Rain = 0
KHA2 200442Z 19007KT M03/M06 A3025 RMK A01 T10291063  RH  078%=      5-min Rain = 0
KHA2 200443Z 19007KT M03/M06 A3025 RMK A01 T10291063  RH  077%=      5-min Rain = 0
KHA2 200444Z 19007KT M03/M06 A3025 RMK A01 T10281062  RH  077%=      5-min Rain = 0
KHA2 200445Z 19007KT M03/M06 A3025 RMK A01 T10281062  RH  077%=      5-min Rain = 0
KHA2 200446Z 20007KT M03/M06 A3025 RMK A01 T10281062  RH  077%=      5-min Rain = 0
KHA2 200447Z 21006KT M03/M06 A3025 RMK A01 T10281062  RH  077%=      5-min Rain = 0
KHA2 200448Z 21006KT M03/M06 A3025 RMK A01 T10291063  RH  077%=      5-min Rain = 0
KHA2 200449Z 20006KT M03/M06 A3025 RMK A01 T10311064  RH  078%=      5-min Rain = 0
KHA2 200450Z 20006KT M03/M06 A3025 RMK A01 T10311063  RH  078%=      5-min Rain = 0
KHA2 200451Z 20006KT M03/M06 A3025 RMK A01 T10311063  RH  079%=      5-min Rain = 0
KHA2 200452Z 20006KT M03/M06 A3025 RMK A01 T10311063  RH  079%=      5-min Rain = 0
KHA2 200453Z 20006KT M03/M06 A3025 RMK A01 T10311063  RH  079%=      5-min Rain = 0
KHA2 200454Z 20006KT M03/M06 A3025 RMK A01 T10311063  RH  079%=      5-min Rain = 0
KHA2 200455Z 20006KT M03/M06 A3026 RMK A01 T10311063  RH  079%=      5-min Rain = 0
KHA2 200456Z 20006KT M03/M06 A3026 RMK A01 T10301062  RH  079%=      5-min Rain = 0
KHA2 200457Z 20006KT M03/M06 A3026 RMK A01 T10301062  RH  079%=      5-min Rain = 0
KHA2 200458Z 20006KT M03/M06 A3026 RMK A01 T10301062  RH  079%=      5-min Rain = 0
KHA2 200459Z 20006KT M03/M06 A3026 RMK A01 T10301062  RH  079%=      5-min Rain = 0
KHA2 200500Z 20006KT M03/M06 A3026 RMK A01 T10301062  RH  079%=      5-min Rain = 0
KHA2 200501Z 20006KT M03/M06 A3026 RMK A01 T10301063  RH  078%=      5-min Rain = 0
KHA2 200502Z 20006KT M03/M06 A3026 RMK A01 T10311063  RH  078%=      5-min Rain = 0
KHA2 200503Z 20006KT M03/M06 A3026 RMK A01 T10311064  RH  078%=      5-min Rain = 0
KHA2 200504Z 20006KT M03/M06 A3026 RMK A01 T10321064  RH  078%=      5-min Rain = 0
KHA2 200505Z 20006KT M03/M06 A3026 RMK A01 T10321064  RH  078%=      5-min Rain = 0
KHA2 200506Z 19006KT M03/M06 A3026 RMK A01 T10321064  RH  078%=      5-min Rain = 0
KHA2 200507Z 19006KT M03/M06 A3026 RMK A01 T10321064  RH  079%=      5-min Rain = 0
KHA2 200508Z 19005KT M03/M06 A3026 RMK A01 T10331064  RH  079%=      5-min Rain = 0
KHA2 200509Z 19005KT M03/M07 A3026 RMK A01 T10331065  RH  079%=      5-min Rain = 0
KHA2 200510Z 19005KT M03/M07 A3025 RMK A01 T10341065  RH  079%=      5-min Rain = 0
KHA2 200511Z 19005KT M03/M07 A3025 RMK A01 T10341065  RH  079%=      5-min Rain = 0
KHA2 200512Z 19005KT M03/M07 A3025 RMK A01 T10341065  RH  079%=      5-min Rain = 0
KHA2 200513Z 19005KT M04/M07 A3025 RMK A01 T10351066  RH  079%=      5-min Rain = 0
KHA2 200514Z 19005KT M04/M07 A3025 RMK A01 T10361067  RH  079%=      5-min Rain = 0
KHA2 200515Z 19005KT M04/M07 A3025 RMK A01 T10381068  RH  079%=      5-min Rain = 0
KHA2 200516Z 19006KT M04/M07 A3025 RMK A01 T10391069  RH  080%=      5-min Rain = 0
KHA2 200517Z 18006KT M04/M07 A3026 RMK A01 T10401069  RH  080%=      5-min Rain = 0
KHA2 200518Z 19005KT M04/M07 A3026 RMK A01 T10401068  RH  081%=      5-min Rain = 0
KHA2 200519Z 19005KT M04/M07 A3026 RMK A01 T10401068  RH  081%=      5-min Rain = 0
KHA2 200520Z 19005KT M04/M07 A3026 RMK A01 T10401067  RH  081%=      5-min Rain = 0
KHA2 200521Z 19005KT M04/M07 A3026 RMK A01 T10381066  RH  081%=      5-min Rain = 0
KHA2 200522Z 19005KT M04/M07 A3026 RMK A01 T10371065  RH  081%=      5-min Rain = 0
KHA2 200523Z 19006KT M04/M06 A3026 RMK A01 T10361064  RH  081%=      5-min Rain = 0
KHA2 200524Z 19006KT M04/M06 A3027 RMK A01 T10351063  RH  081%=      5-min Rain = 0
KHA2 200525Z 19006KT M03/M06 A3027 RMK A01 T10331062  RH  080%=      5-min Rain = 0
KHA2 200526Z 19006KT M03/M06 A3027 RMK A01 T10321063  RH  079%=      5-min Rain = 0
KHA2 200527Z 18005KT M03/M06 A3027 RMK A01 T10311062  RH  079%=      5-min Rain = 0
KHA2 200528Z 19006KT M03/M06 A3027 RMK A01 T10301063  RH  078%=      5-min Rain = 0
KHA2 200529Z 19006KT M03/M06 A3027 RMK A01 T10301064  RH  078%=      5-min Rain = 0
KHA2 200530Z 18006KT M03/M06 A3027 RMK A01 T10301064  RH  078%=      5-min Rain = 0
KHA2 200531Z 18006KT M03/M07 A3027 RMK A01 T10321066  RH  077%=      5-min Rain = 0
KHA2 200532Z 18006KT M03/M07 A3027 RMK A01 T10331067  RH  077%=      5-min Rain = 0
KHA2 200533Z 18006KT M03/M07 A3027 RMK A01 T10341067  RH  078%=      5-min Rain = 0
KHA2 200534Z 19006KT M04/M07 A3027 RMK A01 T10351068  RH  078%=      5-min Rain = 0
KHA2 200535Z 19006KT M04/M07 A3027 RMK A01 T10361069  RH  078%=      5-min Rain = 0
KHA2 200536Z 19006KT M04/M07 A3027 RMK A01 T10371068  RH  079%=      5-min Rain = 0
KHA2 200537Z 19006KT M04/M07 A3027 RMK A01 T10371068  RH  079%=      5-min Rain = 0
KHA2 200538Z 19006KT M04/M07 A3027 RMK A01 T10381068  RH  079%=      5-min Rain = 0
KHA2 200539Z 19006KT M04/M07 A3027 RMK A01 T10391069  RH  079%=      5-min Rain = 0
KHA2 200540Z 18006KT M04/M07 A3027 RMK A01 T10391068  RH  080%=      5-min Rain = 0
KHA2 200541Z 18006KT M04/M07 A3027 RMK A01 T10391069  RH  080%=      5-min Rain = 0
KHA2 200542Z 17006KT M04/M07 A3026 RMK A01 T10381067  RH  081%=      5-min Rain = 0
KHA2 200543Z 17007KT M04/M07 A3026 RMK A01 T10371065  RH  081%=      5-min Rain = 0
KHA2 200544Z 17007KT M04/M06 A3026 RMK A01 T10351064  RH  080%=      5-min Rain = 0
KHA2 200545Z 18007KT M03/M06 A3026 RMK A01 T10341064  RH  080%=      5-min Rain = 0
KHA2 200546Z 18007KT M03/M07 A3026 RMK A01 T10341065  RH  079%=      5-min Rain = 0
KHA2 200547Z 19007KT M04/M07 A3026 RMK A01 T10361068  RH  079%=      5-min Rain = 0
KHA2 200548Z 19006KT M04/M07 A3026 RMK A01 T10361067  RH  079%=      5-min Rain = 0
KHA2 200549Z 19006KT M04/M07 A3026 RMK A01 T10361067  RH  079%=      5-min Rain = 0
KHA2 200550Z 19006KT M04/M07 A3026 RMK A01 T10371067  RH  079%=      5-min Rain = 0
KHA2 200551Z 19006KT M04/M07 A3026 RMK A01 T10391069  RH  079%=      5-min Rain = 0
KHA2 200552Z 19006KT M04/M07 A3027 RMK A01 T10401071  RH  079%=      5-min Rain = 0
KHA2 200553Z 19005KT M04/M07 A3027 RMK A01 T10411070  RH  080%=      5-min Rain = 0
KHA2 200554Z 19005KT M04/M07 A3027 RMK A01 T10411070  RH  081%=      5-min Rain = 0
KHA2 200555Z 18005KT M04/M07 A3027 RMK A01 T10421069  RH  081%=      5-min Rain = 0
KHA2 200556Z 18005KT M04/M07 A3027 RMK A01 T10411068  RH  082%=      5-min Rain = 0
KHA2 200557Z 18005KT M04/M07 A3027 RMK A01 T10411068  RH  081%=      5-min Rain = 0
KHA2 200558Z 18005KT M04/M07 A3027 RMK A01 T10401067  RH  081%=      5-min Rain = 0
KHA2 200559Z 18005KT M04/M07 A3027 RMK A01 T10391066  RH  081%=      5-min Rain = 0

Page generated in 0.1316 seconds.